PWSweather.com
Personal Weather Stations
Station Observations
DL5ARK
SonnebergDE

SonnebergDE

Lat: 50.34904861, Lon: 11.18112087

Elevation: 1214

Station Type: Selfmade

http://www.sumbarg.de

High Low Average
Temperature 72.7°F22.6°C 51.7°F10.9°C 60.4°F15.8°C
Dew Point 55.1°F12.8°C 48.9°F9.4°C 51.7°F10.9°C
Winds 12.5 mph 20.1 kmh Calm Calm 4.0 mph SE6.4 kmh SE
Wind Gusts 12.6 mph20.3 kmh -- 4.0 mph6.4 kmh
Humidity 71% 42% 58%
Pressure 30.26 in1024.7 mb 30.17 in1021.7 mb -
Precipitation 0.00 in0.0 mm - -
Hour Temp Dew Point Humidity Winds Wind Gusts Pressure Precip Precip Rate Daily Precip Total
12:01 AM 56.3°F13.5°C 52.4°F11.3°C 67% Calm Calm -- 30.19 in1022.4 mb 0.00 in0.0 mm 0.00 in0.0 mm 0.00 in0.0 mm
12:04 AM 56.5°F13.6°C 52.3°F11.3°C 66% 1.2 mph NE1.9 kmh NE 1.2 mph1.9 kmh 30.19 in1022.4 mb 0.00 in0.0 mm 0.00 in0.0 mm 0.00 in0.0 mm
12:07 AM 56.5°F13.6°C 52.2°F11.2°C 67% 3.1 mph NE5.0 kmh NE 3.1 mph5.0 kmh 30.19 in1022.4 mb 0.00 in0.0 mm 0.00 in0.0 mm 0.00 in0.0 mm
12:10 AM 56.8°F13.8°C 52.0°F11.1°C 66% 1.2 mph ENE1.9 kmh ENE 1.2 mph1.9 kmh 30.20 in1022.7 mb 0.00 in0.0 mm 0.00 in0.0 mm 0.00 in0.0 mm
12:16 AM 56.8°F13.8°C 52.3°F11.3°C 67% 5.0 mph NNW8.0 kmh NNW 5.1 mph8.2 kmh 30.19 in1022.4 mb 0.00 in0.0 mm 0.00 in0.0 mm 0.00 in0.0 mm
12:19 AM 56.8°F13.8°C 52.4°F11.3°C 67% 4.5 mph NE7.2 kmh NE 4.5 mph7.2 kmh 30.19 in1022.4 mb 0.00 in0.0 mm 0.00 in0.0 mm 0.00 in0.0 mm
12:22 AM 56.9°F13.8°C 52.1°F11.2°C 67% 4.8 mph NE7.7 kmh NE 4.8 mph7.7 kmh 30.19 in1022.4 mb 0.00 in0.0 mm 0.00 in0.0 mm 0.00 in0.0 mm
12:25 AM 56.8°F13.8°C 52.0°F11.1°C 67% 5.0 mph NNW8.0 kmh NNW 5.0 mph8.0 kmh 30.19 in1022.4 mb 0.00 in0.0 mm 0.00 in0.0 mm 0.00 in0.0 mm
12:28 AM 56.6°F13.7°C 52.1°F11.2°C 67% 2.8 mph NE4.5 kmh NE 2.9 mph4.7 kmh 30.19 in1022.4 mb 0.00 in0.0 mm 0.00 in0.0 mm 0.00 in0.0 mm
12:31 AM 56.6°F13.7°C 52.4°F11.3°C 67% 1.2 mph E1.9 kmh E 1.2 mph1.9 kmh 30.18 in1022.0 mb 0.00 in0.0 mm 0.00 in0.0 mm 0.00 in0.0 mm
12:34 AM 56.4°F13.6°C 52.3°F11.3°C 67% 0.4 mph ENE0.6 kmh ENE 0.4 mph0.6 kmh 30.19 in1022.4 mb 0.00 in0.0 mm 0.00 in0.0 mm 0.00 in0.0 mm
12:37 AM 56.3°F13.5°C 52.3°F11.3°C 67% 1.2 mph ENE1.9 kmh ENE 1.2 mph1.9 kmh 30.19 in1022.4 mb 0.00 in0.0 mm 0.00 in0.0 mm 0.00 in0.0 mm
12:40 AM 56.3°F13.5°C 52.2°F11.2°C 67% 2.0 mph NE3.2 kmh NE 2.0 mph3.2 kmh 30.19 in1022.4 mb 0.00 in0.0 mm 0.00 in0.0 mm 0.00 in0.0 mm
12:43 AM 56.3°F13.5°C 52.1°F11.2°C 67% 1.2 mph NE1.9 kmh NE 1.2 mph1.9 kmh 30.19 in1022.4 mb 0.00 in0.0 mm 0.00 in0.0 mm 0.00 in0.0 mm
12:46 AM 56.2°F13.4°C 52.3°F11.3°C 67% 0.4 mph E0.6 kmh E 0.4 mph0.6 kmh 30.18 in1022.0 mb 0.00 in0.0 mm 0.00 in0.0 mm 0.00 in0.0 mm
12:49 AM 56.4°F13.6°C 52.0°F11.1°C 67% 2.8 mph NE4.5 kmh NE 2.9 mph4.7 kmh 30.18 in1022.0 mb 0.00 in0.0 mm 0.00 in0.0 mm 0.00 in0.0 mm
12:52 AM 56.3°F13.5°C 52.0°F11.1°C 67% 2.4 mph E3.9 kmh E 2.4 mph3.9 kmh 30.17 in1021.7 mb 0.00 in0.0 mm 0.00 in0.0 mm 0.00 in0.0 mm
12:55 AM 56.2°F13.4°C 52.0°F11.1°C 67% 2.4 mph ENE3.9 kmh ENE 2.4 mph3.9 kmh 30.17 in1021.7 mb 0.00 in0.0 mm 0.00 in0.0 mm 0.00 in0.0 mm
12:58 AM 56.3°F13.5°C 51.9°F11.1°C 67% 0.8 mph E1.3 kmh E 0.8 mph1.3 kmh 30.17 in1021.7 mb 0.00 in0.0 mm 0.00 in0.0 mm 0.00 in0.0 mm
01:01 AM 56.2°F13.4°C 52.2°F11.2°C 67% 1.2 mph NE1.9 kmh NE 1.2 mph1.9 kmh 30.17 in1021.7 mb 0.00 in0.0 mm 0.00 in0.0 mm 0.00 in0.0 mm
01:04 AM 56.3°F13.5°C 52.2°F11.2°C 67% 3.2 mph E5.1 kmh E 3.2 mph5.1 kmh 30.17 in1021.7 mb 0.00 in0.0 mm 0.00 in0.0 mm 0.00 in0.0 mm
01:07 AM 56.4°F13.6°C 51.7°F10.9°C 66% 3.6 mph E5.8 kmh E 3.6 mph5.8 kmh 30.17 in1021.7 mb 0.00 in0.0 mm 0.00 in0.0 mm 0.00 in0.0 mm
01:10 AM 56.2°F13.4°C 51.6°F10.9°C 66% 2.0 mph NE3.2 kmh NE 2.0 mph3.2 kmh 30.17 in1021.7 mb 0.00 in0.0 mm 0.00 in0.0 mm 0.00 in0.0 mm
01:13 AM 56.4°F13.6°C 51.4°F10.8°C 65% 1.2 mph E1.9 kmh E 1.2 mph1.9 kmh 30.17 in1021.7 mb 0.00 in0.0 mm 0.00 in0.0 mm 0.00 in0.0 mm
01:16 AM 56.2°F13.4°C 51.4°F10.8°C 66% 1.6 mph NE2.6 kmh NE 1.6 mph2.6 kmh 30.17 in1021.7 mb 0.00 in0.0 mm 0.00 in0.0 mm 0.00 in0.0 mm
01:19 AM 56.0°F13.3°C 51.5°F10.8°C 66% 1.5 mph ENE2.4 kmh ENE 1.6 mph2.6 kmh 30.17 in1021.7 mb 0.00 in0.0 mm 0.00 in0.0 mm 0.00 in0.0 mm
01:22 AM 56.2°F13.4°C 51.2°F10.7°C 65% 3.2 mph NE5.1 kmh NE 3.2 mph5.1 kmh 30.17 in1021.7 mb 0.00 in0.0 mm 0.00 in0.0 mm 0.00 in0.0 mm
01:25 AM 56.0°F13.3°C 51.1°F10.6°C 65% 1.2 mph E1.9 kmh E 1.2 mph1.9 kmh 30.17 in1021.7 mb 0.00 in0.0 mm 0.00 in0.0 mm 0.00 in0.0 mm
01:28 AM 56.0°F13.3°C 51.1°F10.6°C 65% 2.4 mph E3.9 kmh E 2.5 mph4.0 kmh 30.17 in1021.7 mb 0.00 in0.0 mm 0.00 in0.0 mm 0.00 in0.0 mm
01:31 AM 55.7°F13.2°C 50.9°F10.5°C 65% 2.0 mph E3.2 kmh E 2.0 mph3.2 kmh 30.17 in1021.7 mb 0.00 in0.0 mm 0.00 in0.0 mm 0.00 in0.0 mm
01:34 AM 55.6°F13.1°C 51.1°F10.6°C 65% 6.1 mph NE9.8 kmh NE 6.1 mph9.8 kmh 30.17 in1021.7 mb 0.00 in0.0 mm 0.00 in0.0 mm 0.00 in0.0 mm
01:37 AM 55.6°F13.1°C 50.7°F10.4°C 65% 1.2 mph E1.9 kmh E 1.2 mph1.9 kmh 30.17 in1021.7 mb 0.00 in0.0 mm 0.00 in0.0 mm 0.00 in0.0 mm
01:40 AM 56.0°F13.3°C 50.5°F10.3°C 65% 1.6 mph ENE2.6 kmh ENE 1.6 mph2.6 kmh 30.18 in1022.0 mb 0.00 in0.0 mm 0.00 in0.0 mm 0.00 in0.0 mm
01:43 AM 55.9°F13.3°C 50.5°F10.3°C 65% 10.1 mph ENE16.3 kmh ENE 10.2 mph16.4 kmh 30.17 in1021.7 mb 0.00 in0.0 mm 0.00 in0.0 mm 0.00 in0.0 mm
01:46 AM 55.9°F13.3°C 50.5°F10.3°C 65% 4.1 mph NE6.6 kmh NE 4.1 mph6.6 kmh 30.18 in1022.0 mb 0.00 in0.0 mm 0.00 in0.0 mm 0.00 in0.0 mm
01:49 AM 55.9°F13.3°C 50.4°F10.2°C 65% 1.2 mph E1.9 kmh E 1.2 mph1.9 kmh 30.18 in1022.0 mb 0.00 in0.0 mm 0.00 in0.0 mm 0.00 in0.0 mm
01:52 AM 55.7°F13.2°C 50.2°F10.1°C 64% 5.9 mph ENE9.5 kmh ENE 6.0 mph9.7 kmh 30.18 in1022.0 mb 0.00 in0.0 mm 0.00 in0.0 mm 0.00 in0.0 mm
01:55 AM 55.9°F13.3°C 50.4°F10.2°C 65% 2.8 mph ENE4.5 kmh ENE 2.8 mph4.5 kmh 30.18 in1022.0 mb 0.00 in0.0 mm 0.00 in0.0 mm 0.00 in0.0 mm
01:58 AM 55.7°F13.2°C 50.2°F10.1°C 64% 2.4 mph ENE3.9 kmh ENE 2.4 mph3.9 kmh 30.17 in1021.7 mb 0.00 in0.0 mm 0.00 in0.0 mm 0.00 in0.0 mm
02:01 AM 55.7°F13.2°C 50.2°F10.1°C 64% 2.4 mph E3.9 kmh E 2.4 mph3.9 kmh 30.18 in1022.0 mb 0.00 in0.0 mm 0.00 in0.0 mm 0.00 in0.0 mm
02:04 AM 55.6°F13.1°C 50.2°F10.1°C 64% 4.0 mph E6.4 kmh E 4.1 mph6.6 kmh 30.17 in1021.7 mb 0.00 in0.0 mm 0.00 in0.0 mm 0.00 in0.0 mm
02:07 AM 55.5°F13.1°C 50.2°F10.1°C 64% 4.7 mph E7.6 kmh E 4.7 mph7.6 kmh 30.17 in1021.7 mb 0.00 in0.0 mm 0.00 in0.0 mm 0.00 in0.0 mm
02:10 AM 55.6°F13.1°C 50.2°F10.1°C 64% 4.4 mph NNW7.1 kmh NNW 4.4 mph7.1 kmh 30.18 in1022.0 mb 0.00 in0.0 mm 0.00 in0.0 mm 0.00 in0.0 mm
02:13 AM 55.5°F13.1°C 50.2°F10.1°C 64% 2.8 mph E4.5 kmh E 2.9 mph4.7 kmh 30.17 in1021.7 mb 0.00 in0.0 mm 0.00 in0.0 mm 0.00 in0.0 mm
02:16 AM 55.4°F13.0°C 50.3°F10.2°C 65% 2.0 mph E3.2 kmh E 2.0 mph3.2 kmh 30.18 in1022.0 mb 0.00 in0.0 mm 0.00 in0.0 mm 0.00 in0.0 mm
02:19 AM 55.4°F13.0°C 50.2°F10.1°C 64% 2.4 mph NE3.9 kmh NE 2.4 mph3.9 kmh 30.18 in1022.0 mb 0.00 in0.0 mm 0.00 in0.0 mm 0.00 in0.0 mm
02:22 AM 55.3°F12.9°C 50.1°F10.1°C 65% 4.8 mph ENE7.7 kmh ENE 4.9 mph7.9 kmh 30.17 in1021.7 mb 0.00 in0.0 mm 0.00 in0.0 mm 0.00 in0.0 mm
02:25 AM 55.4°F13.0°C 49.9°F9.9°C 64% 7.9 mph NE12.7 kmh NE 8.0 mph12.9 kmh 30.17 in1021.7 mb 0.00 in0.0 mm 0.00 in0.0 mm 0.00 in0.0 mm
02:28 AM 55.2°F12.9°C 49.9°F9.9°C 64% 8.7 mph NNW14.0 kmh NNW 8.7 mph14.0 kmh 30.17 in1021.7 mb 0.00 in0.0 mm 0.00 in0.0 mm 0.00 in0.0 mm
02:31 AM 55.2°F12.9°C 49.7°F9.8°C 64% 9.3 mph NE15.0 kmh NE 9.4 mph15.1 kmh 30.17 in1021.7 mb 0.00 in0.0 mm 0.00 in0.0 mm 0.00 in0.0 mm
02:34 AM 55.2°F12.9°C 49.6°F9.8°C 65% 10.9 mph ENE17.5 kmh ENE 11.0 mph17.7 kmh 30.17 in1021.7 mb 0.00 in0.0 mm 0.00 in0.0 mm 0.00 in0.0 mm
02:37 AM 55.1°F12.8°C 49.5°F9.7°C 64% 7.9 mph ENE12.7 kmh ENE 8.0 mph12.9 kmh 30.17 in1021.7 mb 0.00 in0.0 mm 0.00 in0.0 mm 0.00 in0.0 mm
02:40 AM 54.6°F12.6°C 49.7°F9.8°C 65% 1.2 mph E1.9 kmh E 1.2 mph1.9 kmh 30.17 in1021.7 mb 0.00 in0.0 mm 0.00 in0.0 mm 0.00 in0.0 mm
02:43 AM 54.6°F12.6°C 49.6°F9.8°C 65% 10.9 mph NE17.5 kmh NE 11.0 mph17.7 kmh 30.17 in1021.7 mb 0.00 in0.0 mm 0.00 in0.0 mm 0.00 in0.0 mm
02:46 AM 54.5°F12.5°C 49.7°F9.8°C 65% 4.0 mph ENE6.4 kmh ENE 4.1 mph6.6 kmh 30.17 in1021.7 mb 0.00 in0.0 mm 0.00 in0.0 mm 0.00 in0.0 mm
02:49 AM 54.7°F12.6°C 49.6°F9.8°C 65% 9.3 mph NE15.0 kmh NE 9.4 mph15.1 kmh 30.17 in1021.7 mb 0.00 in0.0 mm 0.00 in0.0 mm 0.00 in0.0 mm
02:52 AM 54.6°F12.6°C 49.9°F9.9°C 65% 4.0 mph ENE6.4 kmh ENE 4.0 mph6.4 kmh 30.17 in1021.7 mb 0.00 in0.0 mm 0.00 in0.0 mm 0.00 in0.0 mm
02:55 AM 54.5°F12.5°C 49.7°F9.8°C 65% 3.6 mph ENE5.8 kmh ENE 3.7 mph6.0 kmh 30.17 in1021.7 mb 0.00 in0.0 mm 0.00 in0.0 mm 0.00 in0.0 mm
02:58 AM 54.5°F12.5°C 49.6°F9.8°C 65% 1.1 mph E1.8 kmh E 1.2 mph1.9 kmh 30.18 in1022.0 mb 0.00 in0.0 mm 0.00 in0.0 mm 0.00 in0.0 mm
03:01 AM 54.3°F12.4°C 49.6°F9.8°C 65% 4.9 mph NE7.9 kmh NE 4.9 mph7.9 kmh 30.17 in1021.7 mb 0.00 in0.0 mm 0.00 in0.0 mm 0.00 in0.0 mm
03:04 AM 54.3°F12.4°C 49.8°F9.9°C 66% 6.8 mph E10.9 kmh E 6.8 mph10.9 kmh 30.18 in1022.0 mb 0.00 in0.0 mm 0.00 in0.0 mm 0.00 in0.0 mm
03:07 AM 54.2°F12.3°C 49.6°F9.8°C 65% 7.3 mph ENE11.7 kmh ENE 7.4 mph11.9 kmh 30.18 in1022.0 mb 0.00 in0.0 mm 0.00 in0.0 mm 0.00 in0.0 mm
03:10 AM 54.2°F12.3°C 49.8°F9.9°C 66% 6.7 mph NNW10.8 kmh NNW 6.8 mph10.9 kmh 30.18 in1022.0 mb 0.00 in0.0 mm 0.00 in0.0 mm 0.00 in0.0 mm
03:13 AM 54.2°F12.3°C 49.7°F9.8°C 66% 1.6 mph NNW2.6 kmh NNW 1.6 mph2.6 kmh 30.17 in1021.7 mb 0.00 in0.0 mm 0.00 in0.0 mm 0.00 in0.0 mm
03:16 AM 54.3°F12.4°C 49.6°F9.8°C 66% 2.8 mph ENE4.5 kmh ENE 2.8 mph4.5 kmh 30.18 in1022.0 mb 0.00 in0.0 mm 0.00 in0.0 mm 0.00 in0.0 mm
03:19 AM 54.2°F12.3°C 49.8°F9.9°C 66% 5.2 mph ENE8.4 kmh ENE 5.2 mph8.4 kmh 30.18 in1022.0 mb 0.00 in0.0 mm 0.00 in0.0 mm 0.00 in0.0 mm
03:22 AM 54.2°F12.3°C 49.6°F9.8°C 66% 4.4 mph NE7.1 kmh NE 4.4 mph7.1 kmh 30.18 in1022.0 mb 0.00 in0.0 mm 0.00 in0.0 mm 0.00 in0.0 mm
03:25 AM 53.8°F12.1°C 49.4°F9.7°C 67% 6.0 mph NNW9.7 kmh NNW 6.0 mph9.7 kmh 30.18 in1022.0 mb 0.00 in0.0 mm 0.00 in0.0 mm 0.00 in0.0 mm
03:28 AM 53.8°F12.1°C 49.4°F9.7°C 67% 4.4 mph NNE7.1 kmh NNE 4.5 mph7.2 kmh 30.17 in1021.7 mb 0.00 in0.0 mm 0.00 in0.0 mm 0.00 in0.0 mm
03:31 AM 53.8°F12.1°C 49.6°F9.8°C 67% 4.9 mph NNW7.9 kmh NNW 4.9 mph7.9 kmh 30.17 in1021.7 mb 0.00 in0.0 mm 0.00 in0.0 mm 0.00 in0.0 mm
03:34 AM 53.7°F12.1°C 49.4°F9.7°C 68% 10.5 mph ENE16.9 kmh ENE 10.6 mph17.1 kmh 30.17 in1021.7 mb 0.00 in0.0 mm 0.00 in0.0 mm 0.00 in0.0 mm
03:37 AM 53.5°F11.9°C 49.8°F9.9°C 68% 4.0 mph NE6.4 kmh NE 4.1 mph6.6 kmh 30.17 in1021.7 mb 0.00 in0.0 mm 0.00 in0.0 mm 0.00 in0.0 mm
03:40 AM 53.3°F11.8°C 49.7°F9.8°C 68% 8.8 mph NE14.2 kmh NE 8.9 mph14.3 kmh 30.17 in1021.7 mb 0.00 in0.0 mm 0.00 in0.0 mm 0.00 in0.0 mm
03:43 AM 53.2°F11.8°C 49.4°F9.7°C 68% 8.0 mph NE12.9 kmh NE 8.0 mph12.9 kmh 30.17 in1021.7 mb 0.00 in0.0 mm 0.00 in0.0 mm 0.00 in0.0 mm
03:46 AM 52.9°F11.6°C 49.6°F9.8°C 68% 3.6 mph ENE5.8 kmh ENE 3.6 mph5.8 kmh 30.17 in1021.7 mb 0.00 in0.0 mm 0.00 in0.0 mm 0.00 in0.0 mm
03:49 AM 52.9°F11.6°C 49.7°F9.8°C 68% 4.0 mph NE6.4 kmh NE 4.0 mph6.4 kmh 30.18 in1022.0 mb 0.00 in0.0 mm 0.00 in0.0 mm 0.00 in0.0 mm
03:52 AM 52.9°F11.6°C 49.6°F9.8°C 68% 4.7 mph NE7.6 kmh NE 4.8 mph7.7 kmh 30.18 in1022.0 mb 0.00 in0.0 mm 0.00 in0.0 mm 0.00 in0.0 mm
03:55 AM 53.0°F11.7°C 49.3°F9.6°C 68% 2.4 mph NE3.9 kmh NE 2.4 mph3.9 kmh 30.18 in1022.0 mb 0.00 in0.0 mm 0.00 in0.0 mm 0.00 in0.0 mm
03:58 AM 52.6°F11.4°C 49.3°F9.6°C 68% 6.0 mph ENE9.7 kmh ENE 6.0 mph9.7 kmh 30.18 in1022.0 mb 0.00 in0.0 mm 0.00 in0.0 mm 0.00 in0.0 mm
04:01 AM 52.6°F11.4°C 49.4°F9.7°C 68% 12.1 mph NE19.5 kmh NE 12.2 mph19.6 kmh 30.18 in1022.0 mb 0.00 in0.0 mm 0.00 in0.0 mm 0.00 in0.0 mm
04:04 AM 52.8°F11.6°C 49.5°F9.7°C 69% 5.7 mph ENE9.2 kmh ENE 5.7 mph9.2 kmh 30.18 in1022.0 mb 0.00 in0.0 mm 0.00 in0.0 mm 0.00 in0.0 mm
04:07 AM 52.8°F11.6°C 49.5°F9.7°C 69% 3.8 mph E6.1 kmh E 3.9 mph6.3 kmh 30.18 in1022.0 mb 0.00 in0.0 mm 0.00 in0.0 mm 0.00 in0.0 mm
04:10 AM 52.7°F11.5°C 49.4°F9.7°C 69% 4.9 mph NE7.9 kmh NE 4.9 mph7.9 kmh 30.17 in1021.7 mb 0.00 in0.0 mm 0.00 in0.0 mm 0.00 in0.0 mm
04:13 AM 52.6°F11.4°C 49.7°F9.8°C 69% 5.2 mph NE8.4 kmh NE 5.2 mph8.4 kmh 30.17 in1021.7 mb 0.00 in0.0 mm 0.00 in0.0 mm 0.00 in0.0 mm
04:16 AM 52.5°F11.4°C 49.4°F9.7°C 69% 3.8 mph E6.1 kmh E 3.9 mph6.3 kmh 30.17 in1021.7 mb 0.00 in0.0 mm 0.00 in0.0 mm 0.00 in0.0 mm
04:19 AM 52.5°F11.4°C 49.4°F9.7°C 69% 3.2 mph ENE5.1 kmh ENE 3.2 mph5.1 kmh 30.17 in1021.7 mb 0.00 in0.0 mm 0.00 in0.0 mm 0.00 in0.0 mm
04:22 AM 52.4°F11.3°C 49.4°F9.7°C 69% 1.6 mph ENE2.6 kmh ENE 1.6 mph2.6 kmh 30.17 in1021.7 mb 0.00 in0.0 mm 0.00 in0.0 mm 0.00 in0.0 mm
04:25 AM 52.4°F11.3°C 49.5°F9.7°C 69% 2.4 mph NNW3.9 kmh NNW 2.4 mph3.9 kmh 30.18 in1022.0 mb 0.00 in0.0 mm 0.00 in0.0 mm 0.00 in0.0 mm
04:28 AM 52.4°F11.3°C 49.7°F9.8°C 70% 2.0 mph E3.2 kmh E 2.0 mph3.2 kmh 30.18 in1022.0 mb 0.00 in0.0 mm 0.00 in0.0 mm 0.00 in0.0 mm
04:31 AM 52.3°F11.3°C 49.4°F9.7°C 69% 5.6 mph E9.0 kmh E 5.6 mph9.0 kmh 30.18 in1022.0 mb 0.00 in0.0 mm 0.00 in0.0 mm 0.00 in0.0 mm
04:34 AM 52.1°F11.2°C 49.4°F9.7°C 69% 3.2 mph E5.1 kmh E 3.2 mph5.1 kmh 30.18 in1022.0 mb 0.00 in0.0 mm 0.00 in0.0 mm 0.00 in0.0 mm
04:37 AM 52.0°F11.1°C 49.5°F9.7°C 69% 8.1 mph NE13.0 kmh NE 8.1 mph13.0 kmh 30.19 in1022.4 mb 0.00 in0.0 mm 0.00 in0.0 mm 0.00 in0.0 mm
04:40 AM 52.0°F11.1°C 49.3°F9.6°C 69% 2.0 mph NNW3.2 kmh NNW 2.0 mph3.2 kmh 30.18 in1022.0 mb 0.00 in0.0 mm 0.00 in0.0 mm 0.00 in0.0 mm
04:43 AM 52.1°F11.2°C 49.4°F9.7°C 70% 9.1 mph NNE14.6 kmh NNE 9.1 mph14.6 kmh 30.19 in1022.4 mb 0.00 in0.0 mm 0.00 in0.0 mm 0.00 in0.0 mm
04:46 AM 52.0°F11.1°C 49.4°F9.7°C 70% 1.6 mph NNE2.6 kmh NNE 1.6 mph2.6 kmh 30.18 in1022.0 mb 0.00 in0.0 mm 0.00 in0.0 mm 0.00 in0.0 mm
04:49 AM 52.3°F11.3°C 49.3°F9.6°C 70% 6.0 mph NNW9.7 kmh NNW 6.1 mph9.8 kmh 30.18 in1022.0 mb 0.00 in0.0 mm 0.00 in0.0 mm 0.00 in0.0 mm
04:52 AM 51.9°F11.1°C 49.5°F9.7°C 70% 2.4 mph ESE3.9 kmh ESE 2.4 mph3.9 kmh 30.18 in1022.0 mb 0.00 in0.0 mm 0.00 in0.0 mm 0.00 in0.0 mm
04:55 AM 52.1°F11.2°C 49.3°F9.6°C 70% 10.5 mph NE16.9 kmh NE 10.6 mph17.1 kmh 30.19 in1022.4 mb 0.00 in0.0 mm 0.00 in0.0 mm 0.00 in0.0 mm
04:58 AM 51.9°F11.1°C 49.2°F9.6°C 70% 6.5 mph NNW10.5 kmh NNW 6.5 mph10.5 kmh 30.19 in1022.4 mb 0.00 in0.0 mm 0.00 in0.0 mm 0.00 in0.0 mm
05:01 AM 52.0°F11.1°C 49.4°F9.7°C 70% 3.6 mph ENE5.8 kmh ENE 3.7 mph6.0 kmh 30.19 in1022.4 mb 0.00 in0.0 mm 0.00 in0.0 mm 0.00 in0.0 mm
05:04 AM 51.7°F10.9°C 49.3°F9.6°C 70% 2.0 mph ENE3.2 kmh ENE 2.0 mph3.2 kmh 30.19 in1022.4 mb 0.00 in0.0 mm 0.00 in0.0 mm 0.00 in0.0 mm
05:07 AM 51.7°F10.9°C 49.2°F9.6°C 70% 5.3 mph E8.5 kmh E 5.3 mph8.5 kmh 30.19 in1022.4 mb 0.00 in0.0 mm 0.00 in0.0 mm 0.00 in0.0 mm
05:10 AM 52.0°F11.1°C 49.3°F9.6°C 70% 8.1 mph NE13.0 kmh NE 8.2 mph13.2 kmh 30.19 in1022.4 mb 0.00 in0.0 mm 0.00 in0.0 mm 0.00 in0.0 mm
05:13 AM 52.0°F11.1°C 49.1°F9.5°C 70% 8.1 mph NE13.0 kmh NE 8.2 mph13.2 kmh 30.19 in1022.4 mb 0.00 in0.0 mm 0.00 in0.0 mm 0.00 in0.0 mm
05:16 AM 51.7°F10.9°C 49.3°F9.6°C 70% 1.9 mph E3.1 kmh E 1.9 mph3.1 kmh 30.19 in1022.4 mb 0.00 in0.0 mm 0.00 in0.0 mm 0.00 in0.0 mm
05:19 AM 51.7°F10.9°C 49.2°F9.6°C 70% 9.1 mph NE14.6 kmh NE 9.2 mph14.8 kmh 30.19 in1022.4 mb 0.00 in0.0 mm 0.00 in0.0 mm 0.00 in0.0 mm
05:22 AM 51.8°F11.0°C 49.1°F9.5°C 70% 4.4 mph E7.1 kmh E 4.4 mph7.1 kmh 30.19 in1022.4 mb 0.00 in0.0 mm 0.00 in0.0 mm 0.00 in0.0 mm
05:25 AM 51.7°F10.9°C 48.9°F9.4°C 70% 3.3 mph ENE5.3 kmh ENE 3.3 mph5.3 kmh 30.19 in1022.4 mb 0.00 in0.0 mm 0.00 in0.0 mm 0.00 in0.0 mm
05:28 AM 51.8°F11.0°C 49.1°F9.5°C 71% 3.2 mph NE5.1 kmh NE 3.3 mph5.3 kmh 30.19 in1022.4 mb 0.00 in0.0 mm 0.00 in0.0 mm 0.00 in0.0 mm
05:31 AM 51.8°F11.0°C 48.9°F9.4°C 70% 5.6 mph NE9.0 kmh NE 5.6 mph9.0 kmh 30.19 in1022.4 mb 0.00 in0.0 mm 0.00 in0.0 mm 0.00 in0.0 mm
05:34 AM 51.8°F11.0°C 48.9°F9.4°C 70% 2.4 mph ENE3.9 kmh ENE 2.4 mph3.9 kmh 30.19 in1022.4 mb 0.00 in0.0 mm 0.00 in0.0 mm 0.00 in0.0 mm
05:37 AM 52.0°F11.1°C 48.9°F9.4°C 70% 2.0 mph NNE3.2 kmh NNE 2.0 mph3.2 kmh 30.19 in1022.4 mb 0.00 in0.0 mm 0.00 in0.0 mm 0.00 in0.0 mm
05:40 AM 52.0°F11.1°C 49.0°F9.4°C 71% 4.8 mph ENE7.7 kmh ENE 4.9 mph7.9 kmh 30.19 in1022.4 mb 0.00 in0.0 mm 0.00 in0.0 mm 0.00 in0.0 mm
05:43 AM 52.0°F11.1°C 49.1°F9.5°C 71% 4.1 mph ESE6.6 kmh ESE 4.1 mph6.6 kmh 30.19 in1022.4 mb 0.00 in0.0 mm 0.00 in0.0 mm 0.00 in0.0 mm
05:46 AM 52.0°F11.1°C 49.1°F9.5°C 71% 2.0 mph E3.2 kmh E 2.0 mph3.2 kmh 30.19 in1022.4 mb 0.00 in0.0 mm 0.00 in0.0 mm 0.00 in0.0 mm
05:49 AM 52.0°F11.1°C 49.1°F9.5°C 71% 5.2 mph ENE8.4 kmh ENE 5.2 mph8.4 kmh 30.19 in1022.4 mb 0.00 in0.0 mm 0.00 in0.0 mm 0.00 in0.0 mm
05:52 AM 52.0°F11.1°C 49.2°F9.6°C 71% 2.0 mph ENE3.2 kmh ENE 2.0 mph3.2 kmh 30.19 in1022.4 mb 0.00 in0.0 mm 0.00 in0.0 mm 0.00 in0.0 mm
05:55 AM 52.0°F11.1°C 49.2°F9.6°C 71% 7.2 mph NE11.6 kmh NE 7.2 mph11.6 kmh 30.19 in1022.4 mb 0.00 in0.0 mm 0.00 in0.0 mm 0.00 in0.0 mm
05:58 AM 52.0°F11.1°C 49.1°F9.5°C 71% 4.4 mph NNW7.1 kmh NNW 4.5 mph7.2 kmh 30.19 in1022.4 mb 0.00 in0.0 mm 0.00 in0.0 mm 0.00 in0.0 mm
06:01 AM 52.1°F11.2°C 49.2°F9.6°C 70% 1.5 mph NE2.4 kmh NE 1.6 mph2.6 kmh 30.20 in1022.7 mb 0.00 in0.0 mm 0.00 in0.0 mm 0.00 in0.0 mm
06:04 AM 52.3°F11.3°C 49.2°F9.6°C 70% 4.0 mph E6.4 kmh E 4.1 mph6.6 kmh 30.19 in1022.4 mb 0.00 in0.0 mm 0.00 in0.0 mm 0.00 in0.0 mm
06:07 AM 52.1°F11.2°C 49.4°F9.7°C 70% 4.4 mph NNW7.1 kmh NNW 4.5 mph7.2 kmh 30.19 in1022.4 mb 0.00 in0.0 mm 0.00 in0.0 mm 0.00 in0.0 mm
06:10 AM 52.4°F11.3°C 48.9°F9.4°C 70% 12.5 mph NE20.1 kmh NE 12.6 mph20.3 kmh 30.19 in1022.4 mb 0.00 in0.0 mm 0.00 in0.0 mm 0.00 in0.0 mm
06:13 AM 52.5°F11.4°C 49.0°F9.4°C 70% 4.4 mph NE7.1 kmh NE 4.4 mph7.1 kmh 30.20 in1022.7 mb 0.00 in0.0 mm 0.00 in0.0 mm 0.00 in0.0 mm
06:16 AM 52.6°F11.4°C 49.1°F9.5°C 71% 3.2 mph NNW5.1 kmh NNW 3.3 mph5.3 kmh 30.20 in1022.7 mb 0.00 in0.0 mm 0.00 in0.0 mm 0.00 in0.0 mm
06:19 AM 52.5°F11.4°C 49.1°F9.5°C 70% 5.3 mph E8.5 kmh E 5.3 mph8.5 kmh 30.20 in1022.7 mb 0.00 in0.0 mm 0.00 in0.0 mm 0.00 in0.0 mm
06:22 AM 52.5°F11.4°C 49.0°F9.4°C 70% 8.9 mph NNW14.3 kmh NNW 9.0 mph14.5 kmh 30.20 in1022.7 mb 0.00 in0.0 mm 0.00 in0.0 mm 0.00 in0.0 mm
06:25 AM 52.5°F11.4°C 49.2°F9.6°C 70% 4.4 mph ENE7.1 kmh ENE 4.4 mph7.1 kmh 30.20 in1022.7 mb 0.00 in0.0 mm 0.00 in0.0 mm 0.00 in0.0 mm
06:28 AM 52.6°F11.4°C 49.3°F9.6°C 71% 2.8 mph E4.5 kmh E 2.8 mph4.5 kmh 30.20 in1022.7 mb 0.00 in0.0 mm 0.00 in0.0 mm 0.00 in0.0 mm
06:31 AM 52.5°F11.4°C 49.3°F9.6°C 71% 2.0 mph ENE3.2 kmh ENE 2.0 mph3.2 kmh 30.20 in1022.7 mb 0.00 in0.0 mm 0.00 in0.0 mm 0.00 in0.0 mm
06:34 AM 52.5°F11.4°C 49.3°F9.6°C 71% 2.8 mph E4.5 kmh E 2.9 mph4.7 kmh 30.20 in1022.7 mb 0.00 in0.0 mm 0.00 in0.0 mm 0.00 in0.0 mm
06:37 AM 52.6°F11.4°C 49.3°F9.6°C 71% 6.9 mph ENE11.1 kmh ENE 6.9 mph11.1 kmh 30.20 in1022.7 mb 0.00 in0.0 mm 0.00 in0.0 mm 0.00 in0.0 mm
06:40 AM 52.6°F11.4°C 49.3°F9.6°C 71% 2.4 mph ENE3.9 kmh ENE 2.4 mph3.9 kmh 30.20 in1022.7 mb 0.00 in0.0 mm 0.00 in0.0 mm 0.00 in0.0 mm
06:43 AM 52.5°F11.4°C 49.3°F9.6°C 71% 2.8 mph ENE4.5 kmh ENE 2.8 mph4.5 kmh 30.20 in1022.7 mb 0.00 in0.0 mm 0.00 in0.0 mm 0.00 in0.0 mm
06:46 AM 52.5°F11.4°C 49.3°F9.6°C 71% 2.4 mph E3.9 kmh E 2.4 mph3.9 kmh 30.20 in1022.7 mb 0.00 in0.0 mm 0.00 in0.0 mm 0.00 in0.0 mm
06:49 AM 52.5°F11.4°C 49.4°F9.7°C 71% 2.8 mph NE4.5 kmh NE 2.9 mph4.7 kmh 30.20 in1022.7 mb 0.00 in0.0 mm 0.00 in0.0 mm 0.00 in0.0 mm
06:52 AM 52.5°F11.4°C 49.4°F9.7°C 71% 7.3 mph E11.7 kmh E 7.3 mph11.7 kmh 30.20 in1022.7 mb 0.00 in0.0 mm 0.00 in0.0 mm 0.00 in0.0 mm
06:55 AM 52.5°F11.4°C 49.3°F9.6°C 71% 4.3 mph NE6.9 kmh NE 4.3 mph6.9 kmh 30.20 in1022.7 mb 0.00 in0.0 mm 0.00 in0.0 mm 0.00 in0.0 mm
06:58 AM 52.5°F11.4°C 49.3°F9.6°C 71% 10.5 mph ENE16.9 kmh ENE 10.6 mph17.1 kmh 30.20 in1022.7 mb 0.00 in0.0 mm 0.00 in0.0 mm 0.00 in0.0 mm
07:01 AM 52.6°F11.4°C 49.1°F9.5°C 71% 6.5 mph ENE10.5 kmh ENE 6.6 mph10.6 kmh 30.20 in1022.7 mb 0.00 in0.0 mm 0.00 in0.0 mm 0.00 in0.0 mm
07:04 AM 52.6°F11.4°C 49.4°F9.7°C 71% 5.6 mph NNW9.0 kmh NNW 5.6 mph9.0 kmh 30.20 in1022.7 mb 0.00 in0.0 mm 0.00 in0.0 mm 0.00 in0.0 mm
07:07 AM 52.7°F11.5°C 49.7°F9.8°C 71% 2.8 mph ENE4.5 kmh ENE 2.9 mph4.7 kmh 30.20 in1022.7 mb 0.00 in0.0 mm 0.00 in0.0 mm 0.00 in0.0 mm
07:10 AM 52.7°F11.5°C 49.5°F9.7°C 71% 3.2 mph ESE5.1 kmh ESE 3.3 mph5.3 kmh 30.20 in1022.7 mb 0.00 in0.0 mm 0.00 in0.0 mm 0.00 in0.0 mm
07:13 AM 52.9°F11.6°C 49.5°F9.7°C 70% 2.0 mph E3.2 kmh E 2.0 mph3.2 kmh 30.20 in1022.7 mb 0.00 in0.0 mm 0.00 in0.0 mm 0.00 in0.0 mm
07:16 AM 53.2°F11.8°C 49.7°F9.8°C 71% 2.9 mph E4.7 kmh E 2.9 mph4.7 kmh 30.20 in1022.7 mb 0.00 in0.0 mm 0.00 in0.0 mm 0.00 in0.0 mm
07:19 AM 53.4°F11.9°C 49.8°F9.9°C 70% 4.4 mph ENE7.1 kmh ENE 4.5 mph7.2 kmh 30.20 in1022.7 mb 0.00 in0.0 mm 0.00 in0.0 mm 0.00 in0.0 mm
07:22 AM 53.5°F11.9°C 49.9°F9.9°C 70% 2.4 mph ENE3.9 kmh ENE 2.4 mph3.9 kmh 30.20 in1022.7 mb 0.00 in0.0 mm 0.00 in0.0 mm 0.00 in0.0 mm
07:25 AM 53.6°F12.0°C 49.9°F9.9°C 70% 6.4 mph ESE10.3 kmh ESE 6.4 mph10.3 kmh 30.20 in1022.7 mb 0.00 in0.0 mm 0.00 in0.0 mm 0.00 in0.0 mm
07:28 AM 53.7°F12.1°C 50.3°F10.2°C 70% 5.3 mph ESE8.5 kmh ESE 5.3 mph8.5 kmh 30.21 in1023.0 mb 0.00 in0.0 mm 0.00 in0.0 mm 0.00 in0.0 mm
07:31 AM 53.8°F12.1°C 50.0°F10.0°C 70% 1.2 mph NNW1.9 kmh NNW 1.2 mph1.9 kmh 30.21 in1023.0 mb 0.00 in0.0 mm 0.00 in0.0 mm 0.00 in0.0 mm
07:34 AM 53.9°F12.2°C 50.2°F10.1°C 70% 1.6 mph NNW2.6 kmh NNW 1.6 mph2.6 kmh 30.21 in1023.0 mb 0.00 in0.0 mm 0.00 in0.0 mm 0.00 in0.0 mm
07:37 AM 54.2°F12.3°C 50.4°F10.2°C 70% 3.2 mph NNW5.1 kmh NNW 3.3 mph5.3 kmh 30.22 in1023.4 mb 0.00 in0.0 mm 0.00 in0.0 mm 0.00 in0.0 mm
07:40 AM 54.8°F12.7°C 50.3°F10.2°C 70% 2.3 mph NE3.7 kmh NE 2.4 mph3.9 kmh 30.21 in1023.0 mb 0.00 in0.0 mm 0.00 in0.0 mm 0.00 in0.0 mm
07:43 AM 54.7°F12.6°C 50.6°F10.3°C 70% 3.2 mph NE5.1 kmh NE 3.2 mph5.1 kmh 30.21 in1023.0 mb 0.00 in0.0 mm 0.00 in0.0 mm 0.00 in0.0 mm
07:46 AM 55.4°F13.0°C 50.9°F10.5°C 70% 2.0 mph E3.2 kmh E 2.0 mph3.2 kmh 30.22 in1023.4 mb 0.00 in0.0 mm 0.00 in0.0 mm 0.00 in0.0 mm
07:49 AM 55.3°F12.9°C 50.8°F10.4°C 69% 7.2 mph ENE11.6 kmh ENE 7.4 mph11.9 kmh 30.22 in1023.4 mb 0.00 in0.0 mm 0.00 in0.0 mm 0.00 in0.0 mm
07:52 AM 55.4°F13.0°C 50.9°F10.5°C 69% 2.0 mph ENE3.2 kmh ENE 2.0 mph3.2 kmh 30.22 in1023.4 mb 0.00 in0.0 mm 0.00 in0.0 mm 0.00 in0.0 mm
07:55 AM 56.1°F13.4°C 50.9°F10.5°C 69% 9.2 mph NNW14.8 kmh NNW 9.2 mph14.8 kmh 30.22 in1023.4 mb 0.00 in0.0 mm 0.00 in0.0 mm 0.00 in0.0 mm
07:58 AM 56.5°F13.6°C 51.1°F10.6°C 69% 4.6 mph NE7.4 kmh NE 4.7 mph7.6 kmh 30.22 in1023.4 mb 0.00 in0.0 mm 0.00 in0.0 mm 0.00 in0.0 mm
08:01 AM 56.4°F13.6°C 50.9°F10.5°C 68% 4.9 mph SE7.9 kmh SE 4.9 mph7.9 kmh 30.22 in1023.4 mb 0.00 in0.0 mm 0.00 in0.0 mm 0.00 in0.0 mm
08:04 AM 55.6°F13.1°C 50.7°F10.4°C 68% 4.0 mph ESE6.4 kmh ESE 4.0 mph6.4 kmh 30.22 in1023.4 mb 0.00 in0.0 mm 0.00 in0.0 mm 0.00 in0.0 mm
08:07 AM 56.1°F13.4°C 51.0°F10.6°C 69% 5.7 mph SE9.2 kmh SE 5.7 mph9.2 kmh 30.22 in1023.4 mb 0.00 in0.0 mm 0.00 in0.0 mm 0.00 in0.0 mm
08:10 AM 56.3°F13.5°C 51.1°F10.6°C 69% 2.4 mph ENE3.9 kmh ENE 2.4 mph3.9 kmh 30.22 in1023.4 mb 0.00 in0.0 mm 0.00 in0.0 mm 0.00 in0.0 mm
08:13 AM 57.0°F13.9°C 50.9°F10.5°C 68% 10.1 mph SE16.3 kmh SE 10.2 mph16.4 kmh 30.22 in1023.4 mb 0.00 in0.0 mm 0.00 in0.0 mm 0.00 in0.0 mm
08:16 AM 57.1°F13.9°C 51.4°F10.8°C 68% 0.8 mph NE1.3 kmh NE 0.8 mph1.3 kmh 30.23 in1023.7 mb 0.00 in0.0 mm 0.00 in0.0 mm 0.00 in0.0 mm
08:19 AM 56.6°F13.7°C 50.9°F10.5°C 67% 1.2 mph E1.9 kmh E 1.2 mph1.9 kmh 30.23 in1023.7 mb 0.00 in0.0 mm 0.00 in0.0 mm 0.00 in0.0 mm
08:22 AM 57.0°F13.9°C 50.8°F10.4°C 67% 3.2 mph ESE5.1 kmh ESE 3.3 mph5.3 kmh 30.23 in1023.7 mb 0.00 in0.0 mm 0.00 in0.0 mm 0.00 in0.0 mm
08:25 AM 57.0°F13.9°C 51.1°F10.6°C 67% 3.6 mph ESE5.8 kmh ESE 3.7 mph6.0 kmh 30.22 in1023.4 mb 0.00 in0.0 mm 0.00 in0.0 mm 0.00 in0.0 mm
08:28 AM 57.3°F14.1°C 51.1°F10.6°C 66% 1.6 mph E2.6 kmh E 1.6 mph2.6 kmh 30.22 in1023.4 mb 0.00 in0.0 mm 0.00 in0.0 mm 0.00 in0.0 mm
08:31 AM 57.7°F14.3°C 51.4°F10.8°C 67% 3.6 mph NNW5.8 kmh NNW 3.7 mph6.0 kmh 30.23 in1023.7 mb 0.00 in0.0 mm 0.00 in0.0 mm 0.00 in0.0 mm
08:34 AM 57.4°F14.1°C 51.2°F10.7°C 66% 2.4 mph SE3.9 kmh SE 2.4 mph3.9 kmh 30.23 in1023.7 mb 0.00 in0.0 mm 0.00 in0.0 mm 0.00 in0.0 mm
08:37 AM 57.9°F14.4°C 51.5°F10.8°C 66% 2.8 mph NE4.5 kmh NE 2.9 mph4.7 kmh 30.23 in1023.7 mb 0.00 in0.0 mm 0.00 in0.0 mm 0.00 in0.0 mm
08:40 AM 58.1°F14.5°C 51.2°F10.7°C 66% 6.0 mph E9.7 kmh E 6.1 mph9.8 kmh 30.23 in1023.7 mb 0.00 in0.0 mm 0.00 in0.0 mm 0.00 in0.0 mm
08:43 AM 58.3°F14.6°C 51.5°F10.8°C 66% 8.4 mph NE13.5 kmh NE 8.4 mph13.5 kmh 30.23 in1023.7 mb 0.00 in0.0 mm 0.00 in0.0 mm 0.00 in0.0 mm
08:46 AM 58.3°F14.6°C 51.0°F10.6°C 65% 2.0 mph E3.2 kmh E 2.0 mph3.2 kmh 30.23 in1023.7 mb 0.00 in0.0 mm 0.00 in0.0 mm 0.00 in0.0 mm
08:49 AM 58.8°F14.9°C 51.4°F10.8°C 65% 6.4 mph 10.3 kmh 6.4 mph10.3 kmh 30.23 in1023.7 mb 0.00 in0.0 mm 0.00 in0.0 mm 0.00 in0.0 mm
08:52 AM 58.4°F14.7°C 51.2°F10.7°C 65% 7.3 mph NNE11.7 kmh NNE 7.3 mph11.7 kmh 30.23 in1023.7 mb 0.00 in0.0 mm 0.00 in0.0 mm 0.00 in0.0 mm
08:55 AM 58.7°F14.8°C 51.4°F10.8°C 65% 2.4 mph NE3.9 kmh NE 2.5 mph4.0 kmh 30.23 in1023.7 mb 0.00 in0.0 mm 0.00 in0.0 mm 0.00 in0.0 mm
08:58 AM 59.1°F15.1°C 51.7°F10.9°C 65% 2.8 mph NE4.5 kmh NE 2.8 mph4.5 kmh 30.23 in1023.7 mb 0.00 in0.0 mm 0.00 in0.0 mm 0.00 in0.0 mm
09:01 AM 58.7°F14.8°C 51.5°F10.8°C 64% 1.6 mph E2.6 kmh E 1.6 mph2.6 kmh 30.23 in1023.7 mb 0.00 in0.0 mm 0.00 in0.0 mm 0.00 in0.0 mm
09:04 AM 59.0°F15.0°C 51.6°F10.9°C 64% 0.8 mph SE1.3 kmh SE 0.8 mph1.3 kmh 30.23 in1023.7 mb 0.00 in0.0 mm 0.00 in0.0 mm 0.00 in0.0 mm
09:07 AM 59.0°F15.0°C 51.2°F10.7°C 63% 0.8 mph ESE1.3 kmh ESE 0.8 mph1.3 kmh 30.23 in1023.7 mb 0.00 in0.0 mm 0.00 in0.0 mm 0.00 in0.0 mm
09:13 AM 59.8°F15.4°C 51.9°F11.1°C 62% 2.4 mph ENE3.9 kmh ENE 2.4 mph3.9 kmh 30.23 in1023.7 mb 0.00 in0.0 mm 0.00 in0.0 mm 0.00 in0.0 mm
09:16 AM 60.2°F15.7°C 52.0°F11.1°C 62% 2.7 mph NE4.3 kmh NE 2.7 mph4.3 kmh 30.23 in1023.7 mb 0.00 in0.0 mm 0.00 in0.0 mm 0.00 in0.0 mm
09:19 AM 60.0°F15.6°C 51.7°F10.9°C 62% 0.4 mph 0.6 kmh 0.4 mph0.6 kmh 30.23 in1023.7 mb 0.00 in0.0 mm 0.00 in0.0 mm 0.00 in0.0 mm
09:22 AM 60.4°F15.8°C 51.9°F11.1°C 62% 7.6 mph NE12.2 kmh NE 7.6 mph12.2 kmh 30.23 in1023.7 mb 0.00 in0.0 mm 0.00 in0.0 mm 0.00 in0.0 mm
09:25 AM 60.1°F15.6°C 51.5°F10.8°C 61% 5.3 mph NE8.5 kmh NE 5.3 mph8.5 kmh 30.23 in1023.7 mb 0.00 in0.0 mm 0.00 in0.0 mm 0.00 in0.0 mm
09:28 AM 60.4°F15.8°C 51.8°F11.0°C 62% 0.8 mph NNW1.3 kmh NNW 0.8 mph1.3 kmh 30.23 in1023.7 mb 0.00 in0.0 mm 0.00 in0.0 mm 0.00 in0.0 mm
09:31 AM 60.2°F15.7°C 51.8°F11.0°C 62% 1.6 mph E2.6 kmh E 1.6 mph2.6 kmh 30.23 in1023.7 mb 0.00 in0.0 mm 0.00 in0.0 mm 0.00 in0.0 mm
09:34 AM 60.6°F15.9°C 51.9°F11.1°C 62% 3.2 mph NNE5.1 kmh NNE 3.3 mph5.3 kmh 30.23 in1023.7 mb 0.00 in0.0 mm 0.00 in0.0 mm 0.00 in0.0 mm
09:37 AM 61.1°F16.2°C 51.8°F11.0°C 62% 2.4 mph NE3.9 kmh NE 2.4 mph3.9 kmh 30.23 in1023.7 mb 0.00 in0.0 mm 0.00 in0.0 mm 0.00 in0.0 mm
09:40 AM 61.8°F16.6°C 52.1°F11.2°C 62% 2.0 mph E3.2 kmh E 2.0 mph3.2 kmh 30.23 in1023.7 mb 0.00 in0.0 mm 0.00 in0.0 mm 0.00 in0.0 mm
09:43 AM 61.8°F16.6°C 51.9°F11.1°C 61% 5.7 mph NE9.2 kmh NE 5.7 mph9.2 kmh 30.23 in1023.7 mb 0.00 in0.0 mm 0.00 in0.0 mm 0.00 in0.0 mm
09:46 AM 61.9°F16.6°C 52.0°F11.1°C 61% 2.8 mph 4.5 kmh 2.8 mph4.5 kmh 30.23 in1023.7 mb 0.00 in0.0 mm 0.00 in0.0 mm 0.00 in0.0 mm
09:49 AM 62.0°F16.7°C 51.6°F10.9°C 60% 5.7 mph NNW9.2 kmh NNW 5.7 mph9.2 kmh 30.23 in1023.7 mb 0.00 in0.0 mm 0.00 in0.0 mm 0.00 in0.0 mm
09:52 AM 62.3°F16.8°C 51.4°F10.8°C 59% 3.6 mph SE5.8 kmh SE 3.6 mph5.8 kmh 30.23 in1023.7 mb 0.00 in0.0 mm 0.00 in0.0 mm 0.00 in0.0 mm
09:55 AM 61.8°F16.6°C 51.9°F11.1°C 59% 2.8 mph 4.5 kmh 2.9 mph4.7 kmh 30.23 in1023.7 mb 0.00 in0.0 mm 0.00 in0.0 mm 0.00 in0.0 mm
10:01 AM 62.6°F17.0°C 51.6°F10.9°C 59% 6.2 mph ENE10.0 kmh ENE 6.2 mph10.0 kmh 30.23 in1023.7 mb 0.00 in0.0 mm 0.00 in0.0 mm 0.00 in0.0 mm
10:04 AM 63.2°F17.3°C 52.4°F11.3°C 59% 2.8 mph ENE4.5 kmh ENE 2.8 mph4.5 kmh 30.23 in1023.7 mb 0.00 in0.0 mm 0.00 in0.0 mm 0.00 in0.0 mm
10:07 AM 62.9°F17.2°C 52.2°F11.2°C 58% 2.4 mph SE3.9 kmh SE 2.4 mph3.9 kmh 30.23 in1023.7 mb 0.00 in0.0 mm 0.00 in0.0 mm 0.00 in0.0 mm
10:10 AM 63.4°F17.4°C 52.2°F11.2°C 57% 2.0 mph NNW3.2 kmh NNW 2.0 mph3.2 kmh 30.23 in1023.7 mb 0.00 in0.0 mm 0.00 in0.0 mm 0.00 in0.0 mm
10:13 AM 63.2°F17.3°C 51.6°F10.9°C 57% 4.0 mph NE6.4 kmh NE 4.1 mph6.6 kmh 30.23 in1023.7 mb 0.00 in0.0 mm 0.00 in0.0 mm 0.00 in0.0 mm
10:16 AM 63.2°F17.3°C 52.1°F11.2°C 57% 4.4 mph NE7.1 kmh NE 4.5 mph7.2 kmh 30.23 in1023.7 mb 0.00 in0.0 mm 0.00 in0.0 mm 0.00 in0.0 mm
10:19 AM 63.8°F17.7°C 52.1°F11.2°C 57% 7.3 mph NE11.7 kmh NE 7.3 mph11.7 kmh 30.23 in1023.7 mb 0.00 in0.0 mm 0.00 in0.0 mm 0.00 in0.0 mm
10:22 AM 63.6°F17.6°C 52.2°F11.2°C 55% 2.0 mph SE3.2 kmh SE 2.0 mph3.2 kmh 30.24 in1024.0 mb 0.00 in0.0 mm 0.00 in0.0 mm 0.00 in0.0 mm
10:25 AM 64.1°F17.8°C 51.8°F11.0°C 54% 4.9 mph NE7.9 kmh NE 4.9 mph7.9 kmh 30.24 in1024.0 mb 0.00 in0.0 mm 0.00 in0.0 mm 0.00 in0.0 mm
10:28 AM 63.8°F17.7°C 51.7°F10.9°C 54% 2.0 mph NNW3.2 kmh NNW 2.0 mph3.2 kmh 30.25 in1024.4 mb 0.00 in0.0 mm 0.00 in0.0 mm 0.00 in0.0 mm
10:31 AM 64.7°F18.2°C 52.0°F11.1°C 53% 6.9 mph SE11.1 kmh SE 6.9 mph11.1 kmh 30.25 in1024.4 mb 0.00 in0.0 mm 0.00 in0.0 mm 0.00 in0.0 mm
10:34 AM 65.4°F18.6°C 52.2°F11.2°C 53% 10.3 mph NE16.6 kmh NE 10.4 mph16.7 kmh 30.25 in1024.4 mb 0.00 in0.0 mm 0.00 in0.0 mm 0.00 in0.0 mm
10:37 AM 64.9°F18.3°C 51.9°F11.1°C 52% 6.5 mph NNW10.5 kmh NNW 6.6 mph10.6 kmh 30.24 in1024.0 mb 0.00 in0.0 mm 0.00 in0.0 mm 0.00 in0.0 mm
10:40 AM 64.9°F18.3°C 51.9°F11.1°C 51% 4.8 mph E7.7 kmh E 4.9 mph7.9 kmh 30.24 in1024.0 mb 0.00 in0.0 mm 0.00 in0.0 mm 0.00 in0.0 mm
10:43 AM 65.5°F18.6°C 52.5°F11.4°C 52% 4.0 mph NNW6.4 kmh NNW 4.0 mph6.4 kmh 30.25 in1024.4 mb 0.00 in0.0 mm 0.00 in0.0 mm 0.00 in0.0 mm
10:46 AM 65.2°F18.4°C 51.6°F10.9°C 51% 7.3 mph NE11.7 kmh NE 7.3 mph11.7 kmh 30.23 in1023.7 mb 0.00 in0.0 mm 0.00 in0.0 mm 0.00 in0.0 mm
10:49 AM 65.9°F18.8°C 52.7°F11.5°C 51% 3.6 mph NNW5.8 kmh NNW 3.6 mph5.8 kmh 30.23 in1023.7 mb 0.00 in0.0 mm 0.00 in0.0 mm 0.00 in0.0 mm
10:52 AM 65.4°F18.6°C 51.9°F11.1°C 49% 4.4 mph ESE7.1 kmh ESE 4.4 mph7.1 kmh 30.24 in1024.0 mb 0.00 in0.0 mm 0.00 in0.0 mm 0.00 in0.0 mm
10:55 AM 66.3°F19.1°C 52.2°F11.2°C 49% 6.3 mph E10.1 kmh E 6.3 mph10.1 kmh 30.24 in1024.0 mb 0.00 in0.0 mm 0.00 in0.0 mm 0.00 in0.0 mm
10:58 AM 66.3°F19.1°C 52.3°F11.3°C 48% 4.0 mph NNW6.4 kmh NNW 4.0 mph6.4 kmh 30.25 in1024.4 mb 0.00 in0.0 mm 0.00 in0.0 mm 0.00 in0.0 mm
11:01 AM 65.8°F18.8°C 52.1°F11.2°C 47% 2.8 mph SE4.5 kmh SE 2.8 mph4.5 kmh 30.24 in1024.0 mb 0.00 in0.0 mm 0.00 in0.0 mm 0.00 in0.0 mm
11:04 AM 66.7°F19.3°C 52.8°F11.6°C 48% 2.0 mph NNE3.2 kmh NNE 2.0 mph3.2 kmh 30.24 in1024.0 mb 0.00 in0.0 mm 0.00 in0.0 mm 0.00 in0.0 mm
11:07 AM 66.4°F19.1°C 52.9°F11.6°C 48% 1.2 mph NE1.9 kmh NE 1.2 mph1.9 kmh 30.25 in1024.4 mb 0.00 in0.0 mm 0.00 in0.0 mm 0.00 in0.0 mm
11:10 AM 63.4°F17.4°C 52.3°F11.3°C 49% 4.6 mph E7.4 kmh E 4.7 mph7.6 kmh 30.24 in1024.0 mb 0.00 in0.0 mm 0.00 in0.0 mm 0.00 in0.0 mm
11:13 AM 63.7°F17.6°C 51.3°F10.7°C 48% 5.7 mph NNW9.2 kmh NNW 5.7 mph9.2 kmh 30.25 in1024.4 mb 0.00 in0.0 mm 0.00 in0.0 mm 0.00 in0.0 mm
11:16 AM 63.8°F17.7°C 51.8°F11.0°C 49% 2.4 mph E3.9 kmh E 2.4 mph3.9 kmh 30.25 in1024.4 mb 0.00 in0.0 mm 0.00 in0.0 mm 0.00 in0.0 mm
11:19 AM 64.7°F18.2°C 51.9°F11.1°C 49% 4.2 mph ESE6.8 kmh ESE 4.2 mph6.8 kmh 30.24 in1024.0 mb 0.00 in0.0 mm 0.00 in0.0 mm 0.00 in0.0 mm
11:22 AM 65.2°F18.4°C 51.5°F10.8°C 48% 4.4 mph SE7.1 kmh SE 4.4 mph7.1 kmh 30.23 in1023.7 mb 0.00 in0.0 mm 0.00 in0.0 mm 0.00 in0.0 mm
11:25 AM 64.9°F18.3°C 50.4°F10.2°C 47% 10.9 mph ESE17.5 kmh ESE 11.0 mph17.7 kmh 30.24 in1024.0 mb 0.00 in0.0 mm 0.00 in0.0 mm 0.00 in0.0 mm
11:28 AM 65.1°F18.4°C 51.3°F10.7°C 48% 8.8 mph SE14.2 kmh SE 9.0 mph14.5 kmh 30.23 in1023.7 mb 0.00 in0.0 mm 0.00 in0.0 mm 0.00 in0.0 mm
11:31 AM 66.7°F19.3°C 51.8°F11.0°C 48% 8.1 mph SE13.0 kmh SE 8.2 mph13.2 kmh 30.23 in1023.7 mb 0.00 in0.0 mm 0.00 in0.0 mm 0.00 in0.0 mm
11:34 AM 66.9°F19.4°C 51.5°F10.8°C 48% 10.5 mph SE16.9 kmh SE 10.6 mph17.1 kmh 30.23 in1023.7 mb 0.00 in0.0 mm 0.00 in0.0 mm 0.00 in0.0 mm
11:37 AM 66.9°F19.4°C 52.1°F11.2°C 48% 4.9 mph SSE7.9 kmh SSE 4.9 mph7.9 kmh 30.23 in1023.7 mb 0.00 in0.0 mm 0.00 in0.0 mm 0.00 in0.0 mm
11:40 AM 68.0°F20.0°C 52.4°F11.3°C 47% 6.0 mph ESE9.7 kmh ESE 6.0 mph9.7 kmh 30.23 in1023.7 mb 0.00 in0.0 mm 0.00 in0.0 mm 0.00 in0.0 mm
11:43 AM 67.6°F19.8°C 53.8°F12.1°C 49% 6.1 mph NNW9.8 kmh NNW 6.1 mph9.8 kmh 30.23 in1023.7 mb 0.00 in0.0 mm 0.00 in0.0 mm 0.00 in0.0 mm
11:46 AM 68.3°F20.2°C 53.7°F12.1°C 48% 2.7 mph NE4.3 kmh NE 2.7 mph4.3 kmh 30.23 in1023.7 mb 0.00 in0.0 mm 0.00 in0.0 mm 0.00 in0.0 mm
11:49 AM 67.2°F19.6°C 53.4°F11.9°C 47% 6.9 mph ENE11.1 kmh ENE 6.9 mph11.1 kmh 30.23 in1023.7 mb 0.00 in0.0 mm 0.00 in0.0 mm 0.00 in0.0 mm
11:52 AM 65.0°F18.3°C 52.2°F11.2°C 46% 11.7 mph NE18.8 kmh NE 11.7 mph18.8 kmh 30.23 in1023.7 mb 0.00 in0.0 mm 0.00 in0.0 mm 0.00 in0.0 mm
11:55 AM 66.9°F19.4°C 53.0°F11.7°C 47% 3.5 mph NNW5.6 kmh NNW 3.6 mph5.8 kmh 30.23 in1023.7 mb 0.00 in0.0 mm 0.00 in0.0 mm 0.00 in0.0 mm
11:58 AM 67.7°F19.8°C 53.3°F11.8°C 47% Calm Calm -- 30.23 in1023.7 mb 0.00 in0.0 mm 0.00 in0.0 mm 0.00 in0.0 mm
12:01 PM 68.1°F20.1°C 53.7°F12.1°C 46% 2.0 mph ESE3.2 kmh ESE 2.0 mph3.2 kmh 30.23 in1023.7 mb 0.00 in0.0 mm 0.00 in0.0 mm 0.00 in0.0 mm
12:04 PM 66.9°F19.4°C 53.4°F11.9°C 45% 2.8 mph E4.5 kmh E 2.8 mph4.5 kmh 30.23 in1023.7 mb 0.00 in0.0 mm 0.00 in0.0 mm 0.00 in0.0 mm
12:07 PM 65.4°F18.6°C 52.7°F11.5°C 45% 7.3 mph NNW11.7 kmh NNW 7.4 mph11.9 kmh 30.23 in1023.7 mb 0.00 in0.0 mm 0.00 in0.0 mm 0.00 in0.0 mm
12:10 PM 67.2°F19.6°C 52.9°F11.6°C 46% 5.6 mph ESE9.0 kmh ESE 5.6 mph9.0 kmh 30.23 in1023.7 mb 0.00 in0.0 mm 0.00 in0.0 mm 0.00 in0.0 mm
12:13 PM 67.4°F19.7°C 52.5°F11.4°C 44% Calm Calm -- 30.23 in1023.7 mb 0.00 in0.0 mm 0.00 in0.0 mm 0.00 in0.0 mm
12:16 PM 68.2°F20.1°C 52.3°F11.3°C 44% 6.9 mph SE11.1 kmh SE 6.9 mph11.1 kmh 30.23 in1023.7 mb 0.00 in0.0 mm 0.00 in0.0 mm 0.00 in0.0 mm
12:19 PM 68.3°F20.2°C 52.0°F11.1°C 44% 9.7 mph SE15.6 kmh SE 9.8 mph15.8 kmh 30.23 in1023.7 mb 0.00 in0.0 mm 0.00 in0.0 mm 0.00 in0.0 mm
12:22 PM 69.1°F20.6°C 52.5°F11.4°C 45% 5.7 mph SE9.2 kmh SE 5.7 mph9.2 kmh 30.23 in1023.7 mb 0.00 in0.0 mm 0.00 in0.0 mm 0.00 in0.0 mm
12:25 PM 68.3°F20.2°C 51.8°F11.0°C 44% 8.9 mph ESE14.3 kmh ESE 9.0 mph14.5 kmh 30.23 in1023.7 mb 0.00 in0.0 mm 0.00 in0.0 mm 0.00 in0.0 mm
12:28 PM 68.5°F20.3°C 52.9°F11.6°C 45% 10.0 mph NNW16.1 kmh NNW 10.2 mph16.4 kmh 30.23 in1023.7 mb 0.00 in0.0 mm 0.00 in0.0 mm 0.00 in0.0 mm
12:31 PM 67.6°F19.8°C 53.8°F12.1°C 46% 8.0 mph NE12.9 kmh NE 8.0 mph12.9 kmh 30.23 in1023.7 mb 0.00 in0.0 mm 0.00 in0.0 mm 0.00 in0.0 mm
12:34 PM 67.1°F19.5°C 54.1°F12.3°C 47% 8.9 mph 14.3 kmh 9.0 mph14.5 kmh 30.23 in1023.7 mb 0.00 in0.0 mm 0.00 in0.0 mm 0.00 in0.0 mm
12:37 PM 67.2°F19.6°C 53.8°F12.1°C 47% 4.2 mph ESE6.8 kmh ESE 4.3 mph6.9 kmh 30.23 in1023.7 mb 0.00 in0.0 mm 0.00 in0.0 mm 0.00 in0.0 mm
12:40 PM 66.4°F19.1°C 53.5°F11.9°C 47% 3.2 mph E5.1 kmh E 3.3 mph5.3 kmh 30.23 in1023.7 mb 0.00 in0.0 mm 0.00 in0.0 mm 0.00 in0.0 mm
12:43 PM 64.9°F18.3°C 53.6°F12.0°C 48% 9.3 mph NE15.0 kmh NE 9.4 mph15.1 kmh 30.23 in1023.7 mb 0.00 in0.0 mm 0.00 in0.0 mm 0.00 in0.0 mm
12:46 PM 66.2°F19.0°C 53.1°F11.7°C 47% 3.1 mph NE5.0 kmh NE 3.1 mph5.0 kmh 30.23 in1023.7 mb 0.00 in0.0 mm 0.00 in0.0 mm 0.00 in0.0 mm
12:49 PM 67.1°F19.5°C 54.4°F12.4°C 49% 4.4 mph ENE7.1 kmh ENE 4.4 mph7.1 kmh 30.23 in1023.7 mb 0.00 in0.0 mm 0.00 in0.0 mm 0.00 in0.0 mm
12:52 PM 65.8°F18.8°C 53.6°F12.0°C 49% 9.7 mph NE15.6 kmh NE 9.8 mph15.8 kmh 30.23 in1023.7 mb 0.00 in0.0 mm 0.00 in0.0 mm 0.00 in0.0 mm
12:55 PM 66.7°F19.3°C 54.3°F12.4°C 49% 8.4 mph NE13.5 kmh NE 8.4 mph13.5 kmh 30.23 in1023.7 mb 0.00 in0.0 mm 0.00 in0.0 mm 0.00 in0.0 mm
12:58 PM 65.6°F18.7°C 53.9°F12.2°C 49% 11.7 mph NE18.8 kmh NE 11.8 mph19.0 kmh 30.23 in1023.7 mb 0.00 in0.0 mm 0.00 in0.0 mm 0.00 in0.0 mm
01:01 PM 65.6°F18.7°C 53.8°F12.1°C 50% 10.9 mph NNE17.5 kmh NNE 11.0 mph17.7 kmh 30.24 in1024.0 mb 0.00 in0.0 mm 0.00 in0.0 mm 0.00 in0.0 mm
01:04 PM 66.4°F19.1°C 53.8°F12.1°C 49% 4.0 mph ESE6.4 kmh ESE 4.0 mph6.4 kmh 30.24 in1024.0 mb 0.00 in0.0 mm 0.00 in0.0 mm 0.00 in0.0 mm
01:07 PM 65.4°F18.6°C 53.8°F12.1°C 49% 6.5 mph NE10.5 kmh NE 6.5 mph10.5 kmh 30.24 in1024.0 mb 0.00 in0.0 mm 0.00 in0.0 mm 0.00 in0.0 mm
01:10 PM 66.7°F19.3°C 54.0°F12.2°C 49% 3.2 mph NE5.1 kmh NE 3.3 mph5.3 kmh 30.24 in1024.0 mb 0.00 in0.0 mm 0.00 in0.0 mm 0.00 in0.0 mm
01:13 PM 66.3°F19.1°C 53.7°F12.1°C 49% 10.9 mph NNW17.5 kmh NNW 10.9 mph17.5 kmh 30.24 in1024.0 mb 0.00 in0.0 mm 0.00 in0.0 mm 0.00 in0.0 mm
01:16 PM 66.2°F19.0°C 53.4°F11.9°C 49% 10.3 mph NE16.6 kmh NE 10.4 mph16.7 kmh 30.23 in1023.7 mb 0.00 in0.0 mm 0.00 in0.0 mm 0.00 in0.0 mm
01:19 PM 68.1°F20.1°C 53.7°F12.1°C 49% 9.3 mph SE15.0 kmh SE 9.4 mph15.1 kmh 30.23 in1023.7 mb 0.00 in0.0 mm 0.00 in0.0 mm 0.00 in0.0 mm
01:25 PM 68.6°F20.3°C 52.7°F11.5°C 47% 4.7 mph NNW7.6 kmh NNW 4.7 mph7.6 kmh 30.24 in1024.0 mb 0.00 in0.0 mm 0.00 in0.0 mm 0.00 in0.0 mm
01:28 PM 68.2°F20.1°C 52.7°F11.5°C 48% 3.2 mph SSE5.1 kmh SSE 3.2 mph5.1 kmh 30.24 in1024.0 mb 0.00 in0.0 mm 0.00 in0.0 mm 0.00 in0.0 mm
01:31 PM 68.7°F20.4°C 53.3°F11.8°C 48% 2.0 mph ENE3.2 kmh ENE 2.0 mph3.2 kmh 30.24 in1024.0 mb 0.00 in0.0 mm 0.00 in0.0 mm 0.00 in0.0 mm
01:34 PM 68.1°F20.1°C 53.0°F11.7°C 48% 2.4 mph NNE3.9 kmh NNE 2.5 mph4.0 kmh 30.24 in1024.0 mb 0.00 in0.0 mm 0.00 in0.0 mm 0.00 in0.0 mm
01:37 PM 68.8°F20.4°C 54.5°F12.5°C 51% 7.6 mph NNW12.2 kmh NNW 7.6 mph12.2 kmh 30.24 in1024.0 mb 0.00 in0.0 mm 0.00 in0.0 mm 0.00 in0.0 mm
01:40 PM 66.5°F19.2°C 53.6°F12.0°C 49% 2.4 mph E3.9 kmh E 2.4 mph3.9 kmh 30.24 in1024.0 mb 0.00 in0.0 mm 0.00 in0.0 mm 0.00 in0.0 mm
01:43 PM 67.7°F19.8°C 53.7°F12.1°C 49% 2.8 mph NE4.5 kmh NE 2.9 mph4.7 kmh 30.24 in1024.0 mb 0.00 in0.0 mm 0.00 in0.0 mm 0.00 in0.0 mm
01:46 PM 68.1°F20.1°C 53.8°F12.1°C 48% 5.3 mph NNW8.5 kmh NNW 5.3 mph8.5 kmh 30.24 in1024.0 mb 0.00 in0.0 mm 0.00 in0.0 mm 0.00 in0.0 mm
01:49 PM 69.4°F20.8°C 53.5°F11.9°C 47% 4.4 mph ESE7.1 kmh ESE 4.4 mph7.1 kmh 30.24 in1024.0 mb 0.00 in0.0 mm 0.00 in0.0 mm 0.00 in0.0 mm
01:52 PM 69.7°F20.9°C 53.8°F12.1°C 47% 4.0 mph NE6.4 kmh NE 4.1 mph6.6 kmh 30.23 in1023.7 mb 0.00 in0.0 mm 0.00 in0.0 mm 0.00 in0.0 mm
01:55 PM 68.2°F20.1°C 53.9°F12.2°C 48% 5.2 mph NNW8.4 kmh NNW 5.3 mph8.5 kmh 30.23 in1023.7 mb 0.00 in0.0 mm 0.00 in0.0 mm 0.00 in0.0 mm
01:58 PM 69.1°F20.6°C 53.7°F12.1°C 48% 7.1 mph NNW11.4 kmh NNW 7.1 mph11.4 kmh 30.23 in1023.7 mb 0.00 in0.0 mm 0.00 in0.0 mm 0.00 in0.0 mm
02:01 PM 69.6°F20.9°C 53.0°F11.7°C 47% 4.8 mph SE7.7 kmh SE 4.9 mph7.9 kmh 30.23 in1023.7 mb 0.00 in0.0 mm 0.00 in0.0 mm 0.00 in0.0 mm
02:04 PM 69.7°F20.9°C 53.4°F11.9°C 47% 3.2 mph SE5.1 kmh SE 3.3 mph5.3 kmh 30.23 in1023.7 mb 0.00 in0.0 mm 0.00 in0.0 mm 0.00 in0.0 mm
02:07 PM 69.7°F20.9°C 53.6°F12.0°C 47% 2.3 mph SE3.7 kmh SE 2.4 mph3.9 kmh 30.23 in1023.7 mb 0.00 in0.0 mm 0.00 in0.0 mm 0.00 in0.0 mm
02:10 PM 70.5°F21.4°C 53.9°F12.2°C 48% 1.2 mph S1.9 kmh S 1.2 mph1.9 kmh 30.23 in1023.7 mb 0.00 in0.0 mm 0.00 in0.0 mm 0.00 in0.0 mm
02:13 PM 70.7°F21.5°C 54.3°F12.4°C 47% 2.8 mph NE4.5 kmh NE 2.8 mph4.5 kmh 30.23 in1023.7 mb 0.00 in0.0 mm 0.00 in0.0 mm 0.00 in0.0 mm
02:16 PM 68.8°F20.4°C 54.2°F12.3°C 47% 5.7 mph NE9.2 kmh NE 5.7 mph9.2 kmh 30.23 in1023.7 mb 0.00 in0.0 mm 0.00 in0.0 mm 0.00 in0.0 mm
02:19 PM 70.8°F21.6°C 53.6°F12.0°C 46% 8.5 mph NNW13.7 kmh NNW 8.5 mph13.7 kmh 30.23 in1023.7 mb 0.00 in0.0 mm 0.00 in0.0 mm 0.00 in0.0 mm
02:22 PM 70.9°F21.6°C 54.6°F12.6°C 47% 1.2 mph NE1.9 kmh NE 1.2 mph1.9 kmh 30.23 in1023.7 mb 0.00 in0.0 mm 0.00 in0.0 mm 0.00 in0.0 mm
02:25 PM 72.5°F22.5°C 55.1°F12.8°C 47% 5.8 mph ENE9.3 kmh ENE 5.8 mph9.3 kmh 30.23 in1023.7 mb 0.00 in0.0 mm 0.00 in0.0 mm 0.00 in0.0 mm
02:28 PM 72.7°F22.6°C 54.0°F12.2°C 44% 7.7 mph NNW12.4 kmh NNW 7.7 mph12.4 kmh 30.23 in1023.7 mb 0.00 in0.0 mm 0.00 in0.0 mm 0.00 in0.0 mm
02:31 PM 72.5°F22.5°C 53.8°F12.1°C 44% 5.6 mph ESE9.0 kmh ESE 5.6 mph9.0 kmh 30.23 in1023.7 mb 0.00 in0.0 mm 0.00 in0.0 mm 0.00 in0.0 mm
02:37 PM 70.6°F21.4°C 53.8°F12.1°C 45% 2.7 mph E4.3 kmh E 2.7 mph4.3 kmh 30.23 in1023.7 mb 0.00 in0.0 mm 0.00 in0.0 mm 0.00 in0.0 mm
02:40 PM 70.4°F21.3°C 54.4°F12.4°C 45% 1.2 mph SE1.9 kmh SE 1.2 mph1.9 kmh 30.23 in1023.7 mb 0.00 in0.0 mm 0.00 in0.0 mm 0.00 in0.0 mm
02:43 PM 69.4°F20.8°C 55.0°F12.8°C 46% 10.1 mph NNE16.3 kmh NNE 10.2 mph16.4 kmh 30.23 in1023.7 mb 0.00 in0.0 mm 0.00 in0.0 mm 0.00 in0.0 mm
02:46 PM 69.0°F20.6°C 54.6°F12.6°C 46% 4.2 mph NNW6.8 kmh NNW 4.2 mph6.8 kmh 30.23 in1023.7 mb 0.00 in0.0 mm 0.00 in0.0 mm 0.00 in0.0 mm
02:49 PM 70.3°F21.3°C 54.1°F12.3°C 45% 8.0 mph SE12.9 kmh SE 8.0 mph12.9 kmh 30.23 in1023.7 mb 0.00 in0.0 mm 0.00 in0.0 mm 0.00 in0.0 mm
02:52 PM 68.9°F20.5°C 53.6°F12.0°C 45% 10.5 mph E16.9 kmh E 10.6 mph17.1 kmh 30.23 in1023.7 mb 0.00 in0.0 mm 0.00 in0.0 mm 0.00 in0.0 mm
02:55 PM 69.2°F20.7°C 54.5°F12.5°C 47% 2.7 mph ENE4.3 kmh ENE 2.7 mph4.3 kmh 30.23 in1023.7 mb 0.00 in0.0 mm 0.00 in0.0 mm 0.00 in0.0 mm
02:58 PM 69.9°F21.1°C 54.6°F12.6°C 46% 6.5 mph NE10.5 kmh NE 6.5 mph10.5 kmh 30.23 in1023.7 mb 0.00 in0.0 mm 0.00 in0.0 mm 0.00 in0.0 mm
03:04 PM 70.0°F21.1°C 53.7°F12.1°C 44% 2.4 mph SE3.9 kmh SE 2.4 mph3.9 kmh 30.23 in1023.7 mb 0.00 in0.0 mm 0.00 in0.0 mm 0.00 in0.0 mm
03:07 PM 70.5°F21.4°C 53.7°F12.1°C 44% 6.1 mph ESE9.8 kmh ESE 6.1 mph9.8 kmh 30.23 in1023.7 mb 0.00 in0.0 mm 0.00 in0.0 mm 0.00 in0.0 mm
03:13 PM 71.0°F21.7°C 53.4°F11.9°C 43% 5.3 mph NE8.5 kmh NE 5.3 mph8.5 kmh 30.23 in1023.7 mb 0.00 in0.0 mm 0.00 in0.0 mm 0.00 in0.0 mm
03:16 PM 69.2°F20.7°C 53.6°F12.0°C 42% 1.6 mph E2.6 kmh E 1.6 mph2.6 kmh 30.23 in1023.7 mb 0.00 in0.0 mm 0.00 in0.0 mm 0.00 in0.0 mm
03:19 PM 70.8°F21.6°C 54.4°F12.4°C 44% 0.8 mph NNW1.3 kmh NNW 0.8 mph1.3 kmh 30.23 in1023.7 mb 0.00 in0.0 mm 0.00 in0.0 mm 0.00 in0.0 mm
03:22 PM 70.8°F21.6°C 54.1°F12.3°C 43% 3.2 mph SSE5.1 kmh SSE 3.2 mph5.1 kmh 30.23 in1023.7 mb 0.00 in0.0 mm 0.00 in0.0 mm 0.00 in0.0 mm
03:25 PM 69.5°F20.8°C 54.8°F12.7°C 44% 7.2 mph NE11.6 kmh NE 7.2 mph11.6 kmh 30.23 in1023.7 mb 0.00 in0.0 mm 0.00 in0.0 mm 0.00 in0.0 mm
03:28 PM 69.2°F20.7°C 54.0°F12.2°C 43% 6.4 mph SE10.3 kmh SE 6.4 mph10.3 kmh 30.23 in1023.7 mb 0.00 in0.0 mm 0.00 in0.0 mm 0.00 in0.0 mm
03:31 PM 68.6°F20.3°C 54.1°F12.3°C 44% 4.8 mph ENE7.7 kmh ENE 4.8 mph7.7 kmh 30.23 in1023.7 mb 0.00 in0.0 mm 0.00 in0.0 mm 0.00 in0.0 mm
03:34 PM 67.7°F19.8°C 53.4°F11.9°C 43% 6.4 mph NNW10.3 kmh NNW 6.4 mph10.3 kmh 30.23 in1023.7 mb 0.00 in0.0 mm 0.00 in0.0 mm 0.00 in0.0 mm
03:37 PM 69.4°F20.8°C 54.1°F12.3°C 45% 5.3 mph E8.5 kmh E 5.3 mph8.5 kmh 30.23 in1023.7 mb 0.00 in0.0 mm 0.00 in0.0 mm 0.00 in0.0 mm
03:40 PM 70.1°F21.2°C 54.1°F12.3°C 45% 0.8 mph SE1.3 kmh SE 0.8 mph1.3 kmh 30.23 in1023.7 mb 0.00 in0.0 mm 0.00 in0.0 mm 0.00 in0.0 mm
03:43 PM 71.5°F21.9°C 54.2°F12.3°C 45% 1.6 mph ENE2.6 kmh ENE 1.6 mph2.6 kmh 30.23 in1023.7 mb 0.00 in0.0 mm 0.00 in0.0 mm 0.00 in0.0 mm
03:46 PM 70.7°F21.5°C 53.6°F12.0°C 44% 7.0 mph NNE11.3 kmh NNE 7.1 mph11.4 kmh 30.23 in1023.7 mb 0.00 in0.0 mm 0.00 in0.0 mm 0.00 in0.0 mm
03:49 PM 69.2°F20.7°C 53.6°F12.0°C 44% 7.6 mph NNE12.2 kmh NNE 7.6 mph12.2 kmh 30.23 in1023.7 mb 0.00 in0.0 mm 0.00 in0.0 mm 0.00 in0.0 mm
03:52 PM 70.8°F21.6°C 54.5°F12.5°C 45% 3.6 mph NNE5.8 kmh NNE 3.7 mph6.0 kmh 30.23 in1023.7 mb 0.00 in0.0 mm 0.00 in0.0 mm 0.00 in0.0 mm
03:58 PM 70.9°F21.6°C 52.6°F11.4°C 43% 5.7 mph SSE9.2 kmh SSE 5.7 mph9.2 kmh 30.23 in1023.7 mb 0.00 in0.0 mm 0.00 in0.0 mm 0.00 in0.0 mm
04:01 PM 70.1°F21.2°C 51.9°F11.1°C 43% 7.7 mph SE12.4 kmh SE 7.8 mph12.6 kmh 30.23 in1023.7 mb 0.00 in0.0 mm 0.00 in0.0 mm 0.00 in0.0 mm
04:04 PM 69.8°F21.0°C 52.6°F11.4°C 44% 3.2 mph ESE5.1 kmh ESE 3.3 mph5.3 kmh 30.23 in1023.7 mb 0.00 in0.0 mm 0.00 in0.0 mm 0.00 in0.0 mm
04:07 PM 70.0°F21.1°C 53.4°F11.9°C 46% 4.8 mph ESE7.7 kmh ESE 4.8 mph7.7 kmh 30.23 in1023.7 mb 0.00 in0.0 mm 0.00 in0.0 mm 0.00 in0.0 mm
04:10 PM 68.6°F20.3°C 53.9°F12.2°C 46% 6.5 mph NE10.5 kmh NE 6.5 mph10.5 kmh 30.23 in1023.7 mb 0.00 in0.0 mm 0.00 in0.0 mm 0.00 in0.0 mm
04:13 PM 69.9°F21.1°C 53.9°F12.2°C 47% 2.4 mph E3.9 kmh E 2.4 mph3.9 kmh 30.23 in1023.7 mb 0.00 in0.0 mm 0.00 in0.0 mm 0.00 in0.0 mm
04:16 PM 69.8°F21.0°C 53.0°F11.7°C 45% 5.2 mph ESE8.4 kmh ESE 5.3 mph8.5 kmh 30.23 in1023.7 mb 0.00 in0.0 mm 0.00 in0.0 mm 0.00 in0.0 mm
04:19 PM 69.1°F20.6°C 53.4°F11.9°C 45% 2.0 mph SE3.2 kmh SE 2.0 mph3.2 kmh 30.23 in1023.7 mb 0.00 in0.0 mm 0.00 in0.0 mm 0.00 in0.0 mm
04:22 PM 68.6°F20.3°C 52.7°F11.5°C 45% 6.1 mph NE9.8 kmh NE 6.1 mph9.8 kmh 30.23 in1023.7 mb 0.00 in0.0 mm 0.00 in0.0 mm 0.00 in0.0 mm
04:25 PM 69.0°F20.6°C 52.7°F11.5°C 46% 1.6 mph SE2.6 kmh SE 1.6 mph2.6 kmh 30.23 in1023.7 mb 0.00 in0.0 mm 0.00 in0.0 mm 0.00 in0.0 mm
04:28 PM 68.9°F20.5°C 53.1°F11.7°C 46% 4.0 mph ESE6.4 kmh ESE 4.1 mph6.6 kmh 30.23 in1023.7 mb 0.00 in0.0 mm 0.00 in0.0 mm 0.00 in0.0 mm
04:31 PM 68.6°F20.3°C 52.7°F11.5°C 46% 5.2 mph SE8.4 kmh SE 5.2 mph8.4 kmh 30.23 in1023.7 mb 0.00 in0.0 mm 0.00 in0.0 mm 0.00 in0.0 mm
04:37 PM 68.5°F20.3°C 52.7°F11.5°C 46% 7.3 mph SE11.7 kmh SE 7.3 mph11.7 kmh 30.23 in1023.7 mb 0.00 in0.0 mm 0.00 in0.0 mm 0.00 in0.0 mm
04:40 PM 67.4°F19.7°C 52.1°F11.2°C 46% 7.2 mph ESE11.6 kmh ESE 7.2 mph11.6 kmh 30.23 in1023.7 mb 0.00 in0.0 mm 0.00 in0.0 mm 0.00 in0.0 mm
04:43 PM 67.1°F19.5°C 51.9°F11.1°C 46% 6.5 mph ESE10.5 kmh ESE 6.5 mph10.5 kmh 30.23 in1023.7 mb 0.00 in0.0 mm 0.00 in0.0 mm 0.00 in0.0 mm
04:49 PM 66.8°F19.3°C 52.3°F11.3°C 47% 0.8 mph SE1.3 kmh SE 0.8 mph1.3 kmh 30.23 in1023.7 mb 0.00 in0.0 mm 0.00 in0.0 mm 0.00 in0.0 mm
04:52 PM 66.8°F19.3°C 52.1°F11.2°C 46% 6.5 mph E10.5 kmh E 6.5 mph10.5 kmh 30.23 in1023.7 mb 0.00 in0.0 mm 0.00 in0.0 mm 0.00 in0.0 mm
04:55 PM 66.8°F19.3°C 52.4°F11.3°C 47% 4.6 mph NNW7.4 kmh NNW 4.6 mph7.4 kmh 30.23 in1023.7 mb 0.00 in0.0 mm 0.00 in0.0 mm 0.00 in0.0 mm
04:58 PM 67.1°F19.5°C 52.8°F11.6°C 47% 2.8 mph NNW4.5 kmh NNW 2.8 mph4.5 kmh 30.23 in1023.7 mb 0.00 in0.0 mm 0.00 in0.0 mm 0.00 in0.0 mm
05:01 PM 66.8°F19.3°C 52.5°F11.4°C 47% 1.2 mph E1.9 kmh E 1.2 mph1.9 kmh 30.23 in1023.7 mb 0.00 in0.0 mm 0.00 in0.0 mm 0.00 in0.0 mm
05:04 PM 67.1°F19.5°C 52.8°F11.6°C 47% 1.6 mph ESE2.6 kmh ESE 1.6 mph2.6 kmh 30.23 in1023.7 mb 0.00 in0.0 mm 0.00 in0.0 mm 0.00 in0.0 mm
05:07 PM 67.0°F19.4°C 53.2°F11.8°C 47% 4.0 mph SE6.4 kmh SE 4.1 mph6.6 kmh 30.23 in1023.7 mb 0.00 in0.0 mm 0.00 in0.0 mm 0.00 in0.0 mm
05:10 PM 66.4°F19.1°C 52.8°F11.6°C 48% 7.7 mph SE12.4 kmh SE 7.7 mph12.4 kmh 30.24 in1024.0 mb 0.00 in0.0 mm 0.00 in0.0 mm 0.00 in0.0 mm
05:13 PM 65.6°F18.7°C 52.1°F11.2°C 47% 3.6 mph NNW5.8 kmh NNW 3.7 mph6.0 kmh 30.23 in1023.7 mb 0.00 in0.0 mm 0.00 in0.0 mm 0.00 in0.0 mm
05:19 PM 65.5°F18.6°C 52.2°F11.2°C 48% 6.5 mph ESE10.5 kmh ESE 6.6 mph10.6 kmh 30.24 in1024.0 mb 0.00 in0.0 mm 0.00 in0.0 mm 0.00 in0.0 mm
05:22 PM 65.1°F18.4°C 52.6°F11.4°C 49% 6.9 mph SSE11.1 kmh SSE 7.0 mph11.3 kmh 30.24 in1024.0 mb 0.00 in0.0 mm 0.00 in0.0 mm 0.00 in0.0 mm
05:25 PM 64.9°F18.3°C 52.2°F11.2°C 50% 4.0 mph ESE6.4 kmh ESE 4.1 mph6.6 kmh 30.24 in1024.0 mb 0.00 in0.0 mm 0.00 in0.0 mm 0.00 in0.0 mm
05:28 PM 64.9°F18.3°C 52.3°F11.3°C 49% 8.1 mph NNW13.0 kmh NNW 8.1 mph13.0 kmh 30.24 in1024.0 mb 0.00 in0.0 mm 0.00 in0.0 mm 0.00 in0.0 mm
05:31 PM 64.7°F18.2°C 52.0°F11.1°C 49% 5.2 mph NNW8.4 kmh NNW 5.3 mph8.5 kmh 30.24 in1024.0 mb 0.00 in0.0 mm 0.00 in0.0 mm 0.00 in0.0 mm
05:37 PM 64.6°F18.1°C 52.4°F11.3°C 50% 1.6 mph ESE2.6 kmh ESE 1.6 mph2.6 kmh 30.24 in1024.0 mb 0.00 in0.0 mm 0.00 in0.0 mm 0.00 in0.0 mm
05:40 PM 64.4°F18.0°C 52.4°F11.3°C 50% 4.8 mph SE7.7 kmh SE 4.8 mph7.7 kmh 30.23 in1023.7 mb 0.00 in0.0 mm 0.00 in0.0 mm 0.00 in0.0 mm
05:43 PM 64.3°F17.9°C 52.4°F11.3°C 50% 2.8 mph SE4.5 kmh SE 2.8 mph4.5 kmh 30.24 in1024.0 mb 0.00 in0.0 mm 0.00 in0.0 mm 0.00 in0.0 mm
05:46 PM 64.3°F17.9°C 52.4°F11.3°C 50% 2.4 mph SE3.9 kmh SE 2.4 mph3.9 kmh 30.24 in1024.0 mb 0.00 in0.0 mm 0.00 in0.0 mm 0.00 in0.0 mm
05:49 PM 64.0°F17.8°C 52.2°F11.2°C 50% 5.5 mph ESE8.9 kmh ESE 5.6 mph9.0 kmh 30.24 in1024.0 mb 0.00 in0.0 mm 0.00 in0.0 mm 0.00 in0.0 mm
05:52 PM 64.0°F17.8°C 52.4°F11.3°C 51% 4.8 mph SSE7.7 kmh SSE 4.8 mph7.7 kmh 30.23 in1023.7 mb 0.00 in0.0 mm 0.00 in0.0 mm 0.00 in0.0 mm
05:55 PM 63.8°F17.7°C 52.1°F11.2°C 50% 3.2 mph ESE5.1 kmh ESE 3.3 mph5.3 kmh 30.24 in1024.0 mb 0.00 in0.0 mm 0.00 in0.0 mm 0.00 in0.0 mm
05:58 PM 63.8°F17.7°C 52.4°F11.3°C 51% 4.8 mph ESE7.7 kmh ESE 4.9 mph7.9 kmh 30.24 in1024.0 mb 0.00 in0.0 mm 0.00 in0.0 mm 0.00 in0.0 mm
06:01 PM 63.7°F17.6°C 52.3°F11.3°C 51% 2.7 mph SE4.3 kmh SE 2.8 mph4.5 kmh 30.23 in1023.7 mb 0.00 in0.0 mm 0.00 in0.0 mm 0.00 in0.0 mm
06:04 PM 63.6°F17.6°C 52.7°F11.5°C 51% 5.7 mph ESE9.2 kmh ESE 5.7 mph9.2 kmh 30.23 in1023.7 mb 0.00 in0.0 mm 0.00 in0.0 mm 0.00 in0.0 mm
06:07 PM 63.4°F17.4°C 51.9°F11.1°C 51% 6.5 mph ESE10.5 kmh ESE 6.5 mph10.5 kmh 30.23 in1023.7 mb 0.00 in0.0 mm 0.00 in0.0 mm 0.00 in0.0 mm
06:10 PM 63.4°F17.4°C 52.3°F11.3°C 51% 5.6 mph SE9.0 kmh SE 5.7 mph9.2 kmh 30.24 in1024.0 mb 0.00 in0.0 mm 0.00 in0.0 mm 0.00 in0.0 mm
06:13 PM 63.3°F17.4°C 52.2°F11.2°C 51% 6.7 mph NNW10.8 kmh NNW 6.8 mph10.9 kmh 30.24 in1024.0 mb 0.00 in0.0 mm 0.00 in0.0 mm 0.00 in0.0 mm
06:16 PM 63.3°F17.4°C 52.2°F11.2°C 51% 2.7 mph ESE4.3 kmh ESE 2.7 mph4.3 kmh 30.24 in1024.0 mb 0.00 in0.0 mm 0.00 in0.0 mm 0.00 in0.0 mm
06:19 PM 63.1°F17.3°C 52.2°F11.2°C 51% 2.4 mph E3.9 kmh E 2.4 mph3.9 kmh 30.24 in1024.0 mb 0.00 in0.0 mm 0.00 in0.0 mm 0.00 in0.0 mm
06:22 PM 63.1°F17.3°C 52.1°F11.2°C 52% 3.6 mph SE5.8 kmh SE 3.7 mph6.0 kmh 30.24 in1024.0 mb 0.00 in0.0 mm 0.00 in0.0 mm 0.00 in0.0 mm
06:28 PM 62.7°F17.1°C 52.0°F11.1°C 52% 7.7 mph ESE12.4 kmh ESE 7.8 mph12.6 kmh 30.25 in1024.4 mb 0.00 in0.0 mm 0.00 in0.0 mm 0.00 in0.0 mm
06:31 PM 62.7°F17.1°C 52.0°F11.1°C 53% 5.7 mph SE9.2 kmh SE 5.7 mph9.2 kmh 30.25 in1024.4 mb 0.00 in0.0 mm 0.00 in0.0 mm 0.00 in0.0 mm
06:34 PM 62.7°F17.1°C 52.1°F11.2°C 53% 4.4 mph SE7.1 kmh SE 4.4 mph7.1 kmh 30.25 in1024.4 mb 0.00 in0.0 mm 0.00 in0.0 mm 0.00 in0.0 mm
06:37 PM 62.5°F16.9°C 52.2°F11.2°C 53% 0.8 mph E1.3 kmh E 0.8 mph1.3 kmh 30.25 in1024.4 mb 0.00 in0.0 mm 0.00 in0.0 mm 0.00 in0.0 mm
06:40 PM 62.5°F16.9°C 51.7°F10.9°C 52% 4.4 mph SE7.1 kmh SE 4.5 mph7.2 kmh 30.25 in1024.4 mb 0.00 in0.0 mm 0.00 in0.0 mm 0.00 in0.0 mm
06:43 PM 62.3°F16.8°C 52.6°F11.4°C 53% 0.4 mph E0.6 kmh E 0.4 mph0.6 kmh 30.25 in1024.4 mb 0.00 in0.0 mm 0.00 in0.0 mm 0.00 in0.0 mm
06:49 PM 62.4°F16.9°C 52.1°F11.2°C 53% 3.6 mph SE5.8 kmh SE 3.6 mph5.8 kmh 30.25 in1024.4 mb 0.00 in0.0 mm 0.00 in0.0 mm 0.00 in0.0 mm
06:52 PM 62.3°F16.8°C 51.9°F11.1°C 53% 1.2 mph NNW1.9 kmh NNW 1.2 mph1.9 kmh 30.25 in1024.4 mb 0.00 in0.0 mm 0.00 in0.0 mm 0.00 in0.0 mm
06:55 PM 62.2°F16.8°C 52.1°F11.2°C 53% Calm Calm -- 30.25 in1024.4 mb 0.00 in0.0 mm 0.00 in0.0 mm 0.00 in0.0 mm
07:01 PM 62.0°F16.7°C 52.4°F11.3°C 53% 0.4 mph E0.6 kmh E 0.4 mph0.6 kmh 30.25 in1024.4 mb 0.00 in0.0 mm 0.00 in0.0 mm 0.00 in0.0 mm
07:07 PM 61.8°F16.6°C 52.4°F11.3°C 53% Calm Calm -- 30.25 in1024.4 mb 0.00 in0.0 mm 0.00 in0.0 mm 0.00 in0.0 mm
07:10 PM 61.7°F16.5°C 52.6°F11.4°C 53% 4.4 mph ESE7.1 kmh ESE 4.5 mph7.2 kmh 30.25 in1024.4 mb 0.00 in0.0 mm 0.00 in0.0 mm 0.00 in0.0 mm
07:13 PM 61.7°F16.5°C 52.8°F11.6°C 54% Calm Calm -- 30.25 in1024.4 mb 0.00 in0.0 mm 0.00 in0.0 mm 0.00 in0.0 mm
07:16 PM 61.5°F16.4°C 52.9°F11.6°C 54% Calm Calm -- 30.25 in1024.4 mb 0.00 in0.0 mm 0.00 in0.0 mm 0.00 in0.0 mm
07:22 PM 61.6°F16.4°C 52.4°F11.3°C 54% 2.4 mph SE3.9 kmh SE 2.5 mph4.0 kmh 30.25 in1024.4 mb 0.00 in0.0 mm 0.00 in0.0 mm 0.00 in0.0 mm
07:25 PM 61.4°F16.3°C 52.4°F11.3°C 54% 3.6 mph E5.8 kmh E 3.7 mph6.0 kmh 30.25 in1024.4 mb 0.00 in0.0 mm 0.00 in0.0 mm 0.00 in0.0 mm
07:28 PM 61.6°F16.4°C 52.4°F11.3°C 54% 5.2 mph NNW8.4 kmh NNW 5.2 mph8.4 kmh 30.26 in1024.7 mb 0.00 in0.0 mm 0.00 in0.0 mm 0.00 in0.0 mm
07:31 PM 61.3°F16.3°C 52.5°F11.4°C 54% 2.8 mph ESE4.5 kmh ESE 2.8 mph4.5 kmh 30.26 in1024.7 mb 0.00 in0.0 mm 0.00 in0.0 mm 0.00 in0.0 mm
07:34 PM 61.3°F16.3°C 52.8°F11.6°C 55% 2.0 mph SE3.2 kmh SE 2.0 mph3.2 kmh 30.26 in1024.7 mb 0.00 in0.0 mm 0.00 in0.0 mm 0.00 in0.0 mm
07:37 PM 61.4°F16.3°C 52.2°F11.2°C 55% 3.6 mph NNW5.8 kmh NNW 3.6 mph5.8 kmh 30.26 in1024.7 mb 0.00 in0.0 mm 0.00 in0.0 mm 0.00 in0.0 mm
07:40 PM 61.4°F16.3°C 52.4°F11.3°C 55% 5.6 mph ESE9.0 kmh ESE 5.6 mph9.0 kmh 30.26 in1024.7 mb 0.00 in0.0 mm 0.00 in0.0 mm 0.00 in0.0 mm
07:46 PM 61.0°F16.1°C 52.5°F11.4°C 56% Calm Calm -- 30.26 in1024.7 mb 0.00 in0.0 mm 0.00 in0.0 mm 0.00 in0.0 mm
07:49 PM 61.0°F16.1°C 52.3°F11.3°C 55% 2.4 mph E3.9 kmh E 2.4 mph3.9 kmh 30.26 in1024.7 mb 0.00 in0.0 mm 0.00 in0.0 mm 0.00 in0.0 mm
07:52 PM 61.1°F16.2°C 52.4°F11.3°C 56% 2.0 mph ESE3.2 kmh ESE 2.0 mph3.2 kmh 30.26 in1024.7 mb 0.00 in0.0 mm 0.00 in0.0 mm 0.00 in0.0 mm
07:55 PM 60.7°F15.9°C 52.2°F11.2°C 56% 4.0 mph NNW6.4 kmh NNW 4.0 mph6.4 kmh 30.26 in1024.7 mb 0.00 in0.0 mm 0.00 in0.0 mm 0.00 in0.0 mm
07:58 PM 60.7°F15.9°C 52.6°F11.4°C 56% 0.8 mph SSE1.3 kmh SSE 0.8 mph1.3 kmh 30.26 in1024.7 mb 0.00 in0.0 mm 0.00 in0.0 mm 0.00 in0.0 mm
08:01 PM 60.6°F15.9°C 52.5°F11.4°C 56% Calm Calm -- 30.26 in1024.7 mb 0.00 in0.0 mm 0.00 in0.0 mm 0.00 in0.0 mm
08:07 PM 60.7°F15.9°C 52.4°F11.3°C 56% 0.4 mph SE0.6 kmh SE 0.4 mph0.6 kmh 30.26 in1024.7 mb 0.00 in0.0 mm 0.00 in0.0 mm 0.00 in0.0 mm
08:10 PM 60.7°F15.9°C 52.8°F11.6°C 56% 0.4 mph E0.6 kmh E 0.4 mph0.6 kmh 30.26 in1024.7 mb 0.00 in0.0 mm 0.00 in0.0 mm 0.00 in0.0 mm
08:13 PM 60.4°F15.8°C 52.5°F11.4°C 56% 0.8 mph ESE1.3 kmh ESE 0.8 mph1.3 kmh 30.25 in1024.4 mb 0.00 in0.0 mm 0.00 in0.0 mm 0.00 in0.0 mm
08:16 PM 60.4°F15.8°C 52.2°F11.2°C 56% Calm Calm -- 30.26 in1024.7 mb 0.00 in0.0 mm 0.00 in0.0 mm 0.00 in0.0 mm
08:19 PM 60.4°F15.8°C 52.2°F11.2°C 56% Calm Calm -- 30.26 in1024.7 mb 0.00 in0.0 mm 0.00 in0.0 mm 0.00 in0.0 mm
08:25 PM 60.4°F15.8°C 52.9°F11.6°C 57% Calm Calm -- 30.26 in1024.7 mb 0.00 in0.0 mm 0.00 in0.0 mm 0.00 in0.0 mm
08:28 PM 60.5°F15.8°C 52.7°F11.5°C 57% Calm Calm -- 30.26 in1024.7 mb 0.00 in0.0 mm 0.00 in0.0 mm 0.00 in0.0 mm
08:31 PM 60.4°F15.8°C 52.4°F11.3°C 56% 1.6 mph NE2.6 kmh NE 1.6 mph2.6 kmh 30.26 in1024.7 mb 0.00 in0.0 mm 0.00 in0.0 mm 0.00 in0.0 mm
08:34 PM 60.2°F15.7°C 52.6°F11.4°C 57% 3.2 mph ESE5.1 kmh ESE 3.3 mph5.3 kmh 30.26 in1024.7 mb 0.00 in0.0 mm 0.00 in0.0 mm 0.00 in0.0 mm
08:37 PM 60.6°F15.9°C 52.3°F11.3°C 56% 1.6 mph NNW2.6 kmh NNW 1.6 mph2.6 kmh 30.26 in1024.7 mb 0.00 in0.0 mm 0.00 in0.0 mm 0.00 in0.0 mm
08:40 PM 60.5°F15.8°C 52.4°F11.3°C 56% 0.8 mph E1.3 kmh E 0.8 mph1.3 kmh 30.26 in1024.7 mb 0.00 in0.0 mm 0.00 in0.0 mm 0.00 in0.0 mm
08:43 PM 60.5°F15.8°C 52.4°F11.3°C 57% Calm Calm -- 30.26 in1024.7 mb 0.00 in0.0 mm 0.00 in0.0 mm 0.00 in0.0 mm
08:46 PM 60.1°F15.6°C 52.6°F11.4°C 57% 1.6 mph NNW2.6 kmh NNW 1.6 mph2.6 kmh 30.26 in1024.7 mb 0.00 in0.0 mm 0.00 in0.0 mm 0.00 in0.0 mm
08:49 PM 60.1°F15.6°C 52.7°F11.5°C 57% 0.8 mph E1.3 kmh E 0.8 mph1.3 kmh 30.25 in1024.4 mb 0.00 in0.0 mm 0.00 in0.0 mm 0.00 in0.0 mm
08:52 PM 60.1°F15.6°C 52.2°F11.2°C 57% 2.4 mph NNW3.9 kmh NNW 2.4 mph3.9 kmh 30.25 in1024.4 mb 0.00 in0.0 mm 0.00 in0.0 mm 0.00 in0.0 mm
08:55 PM 59.9°F15.5°C 52.5°F11.4°C 57% 0.8 mph ESE1.3 kmh ESE 0.8 mph1.3 kmh 30.25 in1024.4 mb 0.00 in0.0 mm 0.00 in0.0 mm 0.00 in0.0 mm
08:58 PM 59.8°F15.4°C 52.4°F11.3°C 57% 5.4 mph ESE8.7 kmh ESE 5.4 mph8.7 kmh 30.25 in1024.4 mb 0.00 in0.0 mm 0.00 in0.0 mm 0.00 in0.0 mm
09:01 PM 60.1°F15.6°C 51.9°F11.1°C 56% Calm Calm -- 30.25 in1024.4 mb 0.00 in0.0 mm 0.00 in0.0 mm 0.00 in0.0 mm
09:04 PM 59.9°F15.5°C 52.1°F11.2°C 57% Calm Calm -- 30.25 in1024.4 mb 0.00 in0.0 mm 0.00 in0.0 mm 0.00 in0.0 mm
09:07 PM 59.9°F15.5°C 52.3°F11.3°C 57% Calm Calm -- 30.25 in1024.4 mb 0.00 in0.0 mm 0.00 in0.0 mm 0.00 in0.0 mm
09:10 PM 59.7°F15.4°C 52.1°F11.2°C 57% Calm Calm -- 30.25 in1024.4 mb 0.00 in0.0 mm 0.00 in0.0 mm 0.00 in0.0 mm
09:13 PM 59.8°F15.4°C 52.0°F11.1°C 57% 3.6 mph NNW5.8 kmh NNW 3.6 mph5.8 kmh 30.25 in1024.4 mb 0.00 in0.0 mm 0.00 in0.0 mm 0.00 in0.0 mm
09:16 PM 60.1°F15.6°C 52.1°F11.2°C 57% 0.4 mph NNW0.6 kmh NNW 0.4 mph0.6 kmh 30.25 in1024.4 mb 0.00 in0.0 mm 0.00 in0.0 mm 0.00 in0.0 mm
09:19 PM 59.9°F15.5°C 52.3°F11.3°C 57% 2.8 mph NNW4.5 kmh NNW 2.9 mph4.7 kmh 30.25 in1024.4 mb 0.00 in0.0 mm 0.00 in0.0 mm 0.00 in0.0 mm
09:25 PM 59.7°F15.4°C 52.0°F11.1°C 58% Calm Calm -- 30.25 in1024.4 mb 0.00 in0.0 mm 0.00 in0.0 mm 0.00 in0.0 mm
09:28 PM 59.9°F15.5°C 51.7°F10.9°C 57% 2.3 mph NNW3.7 kmh NNW 2.3 mph3.7 kmh 30.25 in1024.4 mb 0.00 in0.0 mm 0.00 in0.0 mm 0.00 in0.0 mm
09:31 PM 59.8°F15.4°C 51.9°F11.1°C 58% 3.6 mph SE5.8 kmh SE 3.7 mph6.0 kmh 30.25 in1024.4 mb 0.00 in0.0 mm 0.00 in0.0 mm 0.00 in0.0 mm
09:34 PM 59.8°F15.4°C 52.1°F11.2°C 58% 3.4 mph ESE5.5 kmh ESE 3.4 mph5.5 kmh 30.25 in1024.4 mb 0.00 in0.0 mm 0.00 in0.0 mm 0.00 in0.0 mm
09:40 PM 59.7°F15.4°C 52.0°F11.1°C 58% 0.8 mph SE1.3 kmh SE 0.8 mph1.3 kmh 30.25 in1024.4 mb 0.00 in0.0 mm 0.00 in0.0 mm 0.00 in0.0 mm
09:43 PM 59.6°F15.3°C 51.8°F11.0°C 58% 2.8 mph SE4.5 kmh SE 2.9 mph4.7 kmh 30.25 in1024.4 mb 0.00 in0.0 mm 0.00 in0.0 mm 0.00 in0.0 mm
09:46 PM 59.6°F15.3°C 51.9°F11.1°C 58% 1.2 mph SE1.9 kmh SE 1.2 mph1.9 kmh 30.25 in1024.4 mb 0.00 in0.0 mm 0.00 in0.0 mm 0.00 in0.0 mm
09:49 PM 59.5°F15.3°C 52.2°F11.2°C 58% 3.2 mph SE5.1 kmh SE 3.3 mph5.3 kmh 30.26 in1024.7 mb 0.00 in0.0 mm 0.00 in0.0 mm 0.00 in0.0 mm
09:52 PM 59.6°F15.3°C 51.9°F11.1°C 59% 5.7 mph ESE9.2 kmh ESE 5.7 mph9.2 kmh 30.26 in1024.7 mb 0.00 in0.0 mm 0.00 in0.0 mm 0.00 in0.0 mm
09:58 PM 59.2°F15.1°C 52.1°F11.2°C 58% 3.6 mph ESE5.8 kmh ESE 3.6 mph5.8 kmh 30.25 in1024.4 mb 0.00 in0.0 mm 0.00 in0.0 mm 0.00 in0.0 mm
10:01 PM 59.5°F15.3°C 52.0°F11.1°C 59% 4.4 mph ESE7.1 kmh ESE 4.5 mph7.2 kmh 30.25 in1024.4 mb 0.00 in0.0 mm 0.00 in0.0 mm 0.00 in0.0 mm
10:04 PM 59.5°F15.3°C 51.9°F11.1°C 59% 2.4 mph ENE3.9 kmh ENE 2.5 mph4.0 kmh 30.24 in1024.0 mb 0.00 in0.0 mm 0.00 in0.0 mm 0.00 in0.0 mm
10:07 PM 59.2°F15.1°C 52.1°F11.2°C 59% 2.3 mph NNW3.7 kmh NNW 2.4 mph3.9 kmh 30.24 in1024.0 mb 0.00 in0.0 mm 0.00 in0.0 mm 0.00 in0.0 mm
10:10 PM 59.2°F15.1°C 52.2°F11.2°C 59% 2.8 mph SE4.5 kmh SE 2.8 mph4.5 kmh 30.23 in1023.7 mb 0.00 in0.0 mm 0.00 in0.0 mm 0.00 in0.0 mm
10:13 PM 59.1°F15.1°C 51.8°F11.0°C 59% 5.7 mph SE9.2 kmh SE 5.7 mph9.2 kmh 30.23 in1023.7 mb 0.00 in0.0 mm 0.00 in0.0 mm 0.00 in0.0 mm
10:16 PM 59.1°F15.1°C 52.0°F11.1°C 60% 4.6 mph NNW7.4 kmh NNW 4.7 mph7.6 kmh 30.24 in1024.0 mb 0.00 in0.0 mm 0.00 in0.0 mm 0.00 in0.0 mm
10:19 PM 59.3°F15.2°C 51.8°F11.0°C 60% 6.1 mph SE9.8 kmh SE 6.1 mph9.8 kmh 30.23 in1023.7 mb 0.00 in0.0 mm 0.00 in0.0 mm 0.00 in0.0 mm
10:22 PM 59.3°F15.2°C 52.1°F11.2°C 60% 4.0 mph SE6.4 kmh SE 4.0 mph6.4 kmh 30.23 in1023.7 mb 0.00 in0.0 mm 0.00 in0.0 mm 0.00 in0.0 mm
10:25 PM 59.1°F15.1°C 52.0°F11.1°C 60% 8.0 mph SE12.9 kmh SE 8.0 mph12.9 kmh 30.23 in1023.7 mb 0.00 in0.0 mm 0.00 in0.0 mm 0.00 in0.0 mm
10:28 PM 59.3°F15.2°C 52.0°F11.1°C 60% 10.3 mph SE16.6 kmh SE 10.4 mph16.7 kmh 30.23 in1023.7 mb 0.00 in0.0 mm 0.00 in0.0 mm 0.00 in0.0 mm
10:31 PM 59.1°F15.1°C 52.1°F11.2°C 60% 4.0 mph ESE6.4 kmh ESE 4.0 mph6.4 kmh 30.23 in1023.7 mb 0.00 in0.0 mm 0.00 in0.0 mm 0.00 in0.0 mm
10:34 PM 59.1°F15.1°C 52.2°F11.2°C 60% 2.0 mph SE3.2 kmh SE 2.0 mph3.2 kmh 30.23 in1023.7 mb 0.00 in0.0 mm 0.00 in0.0 mm 0.00 in0.0 mm
10:37 PM 58.9°F14.9°C 52.2°F11.2°C 61% 3.2 mph ENE5.1 kmh ENE 3.2 mph5.1 kmh 30.23 in1023.7 mb 0.00 in0.0 mm 0.00 in0.0 mm 0.00 in0.0 mm
10:40 PM 58.9°F14.9°C 52.4°F11.3°C 61% 1.1 mph NNW1.8 kmh NNW 1.2 mph1.9 kmh 30.23 in1023.7 mb 0.00 in0.0 mm 0.00 in0.0 mm 0.00 in0.0 mm
10:43 PM 59.0°F15.0°C 52.4°F11.3°C 61% 1.6 mph NNE2.6 kmh NNE 1.6 mph2.6 kmh 30.23 in1023.7 mb 0.00 in0.0 mm 0.00 in0.0 mm 0.00 in0.0 mm
10:46 PM 58.9°F14.9°C 52.5°F11.4°C 62% 4.8 mph ESE7.7 kmh ESE 4.8 mph7.7 kmh 30.23 in1023.7 mb 0.00 in0.0 mm 0.00 in0.0 mm 0.00 in0.0 mm
10:49 PM 58.8°F14.9°C 52.7°F11.5°C 62% 6.6 mph NNW10.6 kmh NNW 6.6 mph10.6 kmh 30.23 in1023.7 mb 0.00 in0.0 mm 0.00 in0.0 mm 0.00 in0.0 mm
10:52 PM 58.6°F14.8°C 52.5°F11.4°C 62% 2.6 mph NNE4.2 kmh NNE 2.8 mph4.5 kmh 30.23 in1023.7 mb 0.00 in0.0 mm 0.00 in0.0 mm 0.00 in0.0 mm
10:55 PM 58.3°F14.6°C 52.7°F11.5°C 62% 4.4 mph ESE7.1 kmh ESE 4.4 mph7.1 kmh 30.23 in1023.7 mb 0.00 in0.0 mm 0.00 in0.0 mm 0.00 in0.0 mm
10:58 PM 58.4°F14.7°C 52.6°F11.4°C 62% 4.4 mph NNW7.1 kmh NNW 4.5 mph7.2 kmh 30.23 in1023.7 mb 0.00 in0.0 mm 0.00 in0.0 mm 0.00 in0.0 mm
11:01 PM 58.4°F14.7°C 52.9°F11.6°C 63% 5.0 mph E8.0 kmh E 5.0 mph8.0 kmh 30.23 in1023.7 mb 0.00 in0.0 mm 0.00 in0.0 mm 0.00 in0.0 mm
11:04 PM 57.9°F14.4°C 52.9°F11.6°C 63% 2.0 mph ESE3.2 kmh ESE 2.0 mph3.2 kmh 30.23 in1023.7 mb 0.00 in0.0 mm 0.00 in0.0 mm 0.00 in0.0 mm
11:07 PM 58.2°F14.6°C 52.9°F11.6°C 63% 7.7 mph E12.4 kmh E 7.7 mph12.4 kmh 30.23 in1023.7 mb 0.00 in0.0 mm 0.00 in0.0 mm 0.00 in0.0 mm
11:10 PM 58.1°F14.5°C 52.8°F11.6°C 63% 2.8 mph ESE4.5 kmh ESE 2.9 mph4.7 kmh 30.23 in1023.7 mb 0.00 in0.0 mm 0.00 in0.0 mm 0.00 in0.0 mm
11:13 PM 58.2°F14.6°C 52.7°F11.5°C 64% 3.8 mph NNE6.1 kmh NNE 3.8 mph6.1 kmh 30.23 in1023.7 mb 0.00 in0.0 mm 0.00 in0.0 mm 0.00 in0.0 mm
11:16 PM 57.8°F14.3°C 53.0°F11.7°C 64% 4.8 mph NNW7.7 kmh NNW 4.9 mph7.9 kmh 30.23 in1023.7 mb 0.00 in0.0 mm 0.00 in0.0 mm 0.00 in0.0 mm
11:19 PM 57.7°F14.3°C 53.1°F11.7°C 64% 3.2 mph SE5.1 kmh SE 3.2 mph5.1 kmh 30.23 in1023.7 mb 0.00 in0.0 mm 0.00 in0.0 mm 0.00 in0.0 mm
11:22 PM 57.7°F14.3°C 53.2°F11.8°C 64% 1.2 mph ESE1.9 kmh ESE 1.2 mph1.9 kmh 30.23 in1023.7 mb 0.00 in0.0 mm 0.00 in0.0 mm 0.00 in0.0 mm
11:25 PM 57.5°F14.2°C 53.2°F11.8°C 64% 1.9 mph SSE3.1 kmh SSE 2.0 mph3.2 kmh 30.23 in1023.7 mb 0.00 in0.0 mm 0.00 in0.0 mm 0.00 in0.0 mm
11:28 PM 57.7°F14.3°C 52.9°F11.6°C 64% 0.4 mph SSE0.6 kmh SSE 0.4 mph0.6 kmh 30.23 in1023.7 mb 0.00 in0.0 mm 0.00 in0.0 mm 0.00 in0.0 mm
11:31 PM 57.8°F14.3°C 52.8°F11.6°C 65% 6.4 mph SE10.3 kmh SE 6.4 mph10.3 kmh 30.23 in1023.7 mb 0.00 in0.0 mm 0.00 in0.0 mm 0.00 in0.0 mm
11:34 PM 57.9°F14.4°C 53.2°F11.8°C 65% 0.4 mph NNW0.6 kmh NNW 0.4 mph0.6 kmh 30.23 in1023.7 mb 0.00 in0.0 mm 0.00 in0.0 mm 0.00 in0.0 mm
11:37 PM 57.7°F14.3°C 53.4°F11.9°C 65% Calm Calm -- 30.23 in1023.7 mb 0.00 in0.0 mm 0.00 in0.0 mm 0.00 in0.0 mm
11:40 PM 57.5°F14.2°C 52.9°F11.6°C 65% 5.6 mph ESE9.0 kmh ESE 5.6 mph9.0 kmh 30.23 in1023.7 mb 0.00 in0.0 mm 0.00 in0.0 mm 0.00 in0.0 mm
11:43 PM 57.7°F14.3°C 53.3°F11.8°C 65% 3.2 mph NNW5.1 kmh NNW 3.3 mph5.3 kmh 30.23 in1023.7 mb 0.00 in0.0 mm 0.00 in0.0 mm 0.00 in0.0 mm
11:46 PM 57.9°F14.4°C 53.4°F11.9°C 66% 4.2 mph ESE6.8 kmh ESE 4.3 mph6.9 kmh 30.23 in1023.7 mb 0.00 in0.0 mm 0.00 in0.0 mm 0.00 in0.0 mm
11:49 PM 57.8°F14.3°C 53.1°F11.7°C 66% 5.7 mph ESE9.2 kmh ESE 5.7 mph9.2 kmh 30.23 in1023.7 mb 0.00 in0.0 mm 0.00 in0.0 mm 0.00 in0.0 mm
11:52 PM 58.0°F14.4°C 53.3°F11.8°C 66% 5.7 mph ESE9.2 kmh ESE 5.7 mph9.2 kmh 30.23 in1023.7 mb 0.00 in0.0 mm 0.00 in0.0 mm 0.00 in0.0 mm
11:55 PM 57.8°F14.3°C 53.0°F11.7°C 66% 8.5 mph SE13.7 kmh SE 8.6 mph13.8 kmh 30.23 in1023.7 mb 0.00 in0.0 mm 0.00 in0.0 mm 0.00 in0.0 mm
11:58 PM 57.8°F14.3°C 53.3°F11.8°C 66% 10.4 mph E16.7 kmh E 10.4 mph16.7 kmh 30.23 in1023.7 mb 0.00 in0.0 mm 0.00 in0.0 mm 0.00 in0.0 mm